Observation data for Palo Duro Canyon State Park Floor on 04/24/2019      Previous  Date  Next       Current Mesonet Observations  Soil Data  Daily Summary Page  Observations in Plain Language
KPD2 240500Z 29002KT 09/05 A3009 RMK A01 T00920047  RH  074%=      5-min Rain = 0
KPD2 240501Z 34003KT 09/05 A3009 RMK A01 T00920047  RH  074%=      5-min Rain = 0
KPD2 240502Z 00005KT 09/05 A3009 RMK A01 T00910048  RH  075%=      5-min Rain = 0
KPD2 240503Z 01004KT 09/05 A3009 RMK A01 T00900049  RH  076%=      5-min Rain = 0
KPD2 240504Z 34003KT 09/05 A3009 RMK A01 T00890048  RH  075%=      5-min Rain = 0
KPD2 240505Z 34002KT 09/05 A3008 RMK A01 T00900047  RH  074%=      5-min Rain = 0
KPD2 240506Z 36003KT 09/05 A3008 RMK A01 T00900047  RH  074%=      5-min Rain = 0
KPD2 240507Z 36002KT 09/05 A3008 RMK A01 T00900047  RH  075%=      5-min Rain = 0
KPD2 240508Z 01002KT 09/05 A3008 RMK A01 T00890048  RH  075%=      5-min Rain = 0
KPD2 240509Z 01002KT 09/05 A3008 RMK A01 T00890047  RH  075%=      5-min Rain = 0
KPD2 240510Z 36001KT 09/05 A3008 RMK A01 T00880047  RH  075%=      5-min Rain = 0
KPD2 240511Z 35000KT 09/05 A3008 RMK A01 T00870047  RH  076%=      5-min Rain = 0
KPD2 240512Z 35000KT 09/05 A3008 RMK A01 T00870047  RH  076%=      5-min Rain = 0
KPD2 240513Z 31000KT 09/05 A3008 RMK A01 T00870047  RH  076%=      5-min Rain = 0
KPD2 240514Z 30000KT 09/05 A3008 RMK A01 T00860047  RH  076%=      5-min Rain = 0
KPD2 240515Z 30000KT 09/05 A3008 RMK A01 T00860047  RH  077%=      5-min Rain = 0
KPD2 240516Z 33001KT 09/05 A3009 RMK A01 T00850047  RH  077%=      5-min Rain = 0
KPD2 240517Z 00001KT 09/05 A3008 RMK A01 T00850047  RH  077%=      5-min Rain = 0
KPD2 240518Z 04000KT 09/05 A3008 RMK A01 T00850048  RH  078%=      5-min Rain = 0
KPD2 240519Z 17001KT 09/05 A3008 RMK A01 T00850048  RH  078%=      5-min Rain = 0
KPD2 240520Z 25001KT 09/05 A3008 RMK A01 T00860049  RH  077%=      5-min Rain = 0
KPD2 240521Z 33001KT 09/05 A3008 RMK A01 T00860049  RH  077%=      5-min Rain = 0
KPD2 240522Z 34002KT 09/05 A3008 RMK A01 T00850049  RH  078%=      5-min Rain = 0
KPD2 240523Z 35002KT 08/05 A3008 RMK A01 T00840049  RH  079%=      5-min Rain = 0
KPD2 240524Z 01002KT 08/05 A3008 RMK A01 T00830049  RH  079%=      5-min Rain = 0
KPD2 240525Z 01001KT 08/05 A3008 RMK A01 T00830050  RH  080%=      5-min Rain = 0
KPD2 240526Z 01002KT 08/05 A3008 RMK A01 T00820049  RH  080%=      5-min Rain = 0
KPD2 240527Z 36003KT 08/05 A3008 RMK A01 T00810049  RH  080%=      5-min Rain = 0
KPD2 240528Z 35004KT 08/05 A3008 RMK A01 T00800049  RH  080%=      5-min Rain = 0
KPD2 240529Z 35004KT 08/05 A3007 RMK A01 T00790049  RH  081%=      5-min Rain = 0
KPD2 240530Z 00004KT 08/05 A3007 RMK A01 T00790048  RH  081%=      5-min Rain = 0
KPD2 240531Z 36003KT 08/05 A3007 RMK A01 T00780048  RH  082%=      5-min Rain = 0
KPD2 240532Z 35003KT 08/05 A3007 RMK A01 T00770048  RH  082%=      5-min Rain = 0
KPD2 240533Z 35003KT 08/05 A3007 RMK A01 T00770048  RH  082%=      5-min Rain = 0
KPD2 240534Z 36004KT 08/05 A3007 RMK A01 T00760048  RH  083%=      5-min Rain = 0
KPD2 240535Z 35004KT 08/05 A3007 RMK A01 T00750048  RH  083%=      5-min Rain = 0
KPD2 240536Z 34004KT 08/05 A3007 RMK A01 T00750049  RH  083%=      5-min Rain = 0
KPD2 240537Z 34004KT 08/05 A3007 RMK A01 T00750049  RH  083%=      5-min Rain = 0
KPD2 240538Z 34004KT 08/05 A3006 RMK A01 T00750049  RH  084%=      5-min Rain = 0
KPD2 240539Z 34004KT 08/05 A3006 RMK A01 T00750049  RH  084%=      5-min Rain = 0
KPD2 240540Z 34005KT 08/05 A3006 RMK A01 T00750049  RH  084%=      5-min Rain = 0
KPD2 240541Z 35004KT 08/05 A3006 RMK A01 T00750049  RH  084%=      5-min Rain = 0
KPD2 240542Z 34003KT 08/05 A3006 RMK A01 T00750049  RH  084%=      5-min Rain = 0
KPD2 240543Z 35004KT 08/05 A3006 RMK A01 T00750049  RH  084%=      5-min Rain = 0
KPD2 240544Z 35002KT 08/05 A3006 RMK A01 T00750049  RH  084%=      5-min Rain = 0
KPD2 240545Z 30002KT 08/05 A3006 RMK A01 T00750049  RH  084%=      5-min Rain = 0
KPD2 240546Z 30003KT 07/05 A3006 RMK A01 T00740049  RH  084%=      5-min Rain = 0
KPD2 240547Z 29004KT 07/05 A3006 RMK A01 T00740049  RH  084%=      5-min Rain = 0
KPD2 240548Z 30004KT 08/05 A3006 RMK A01 T00750050  RH  084%=      5-min Rain = 0
KPD2 240549Z 31004KT 08/05 A3006 RMK A01 T00760050  RH  084%=      5-min Rain = 0
KPD2 240550Z 32004KT 08/05 A3006 RMK A01 T00770051  RH  084%=      5-min Rain = 0
KPD2 240551Z 33004KT 08/05 A3006 RMK A01 T00770051  RH  084%=      5-min Rain = 0
KPD2 240552Z 35005KT 08/05 A3005 RMK A01 T00770051  RH  084%=      5-min Rain = 0
KPD2 240553Z 34004KT 08/05 A3005 RMK A01 T00760052  RH  084%=      5-min Rain = 0
KPD2 240554Z 32004KT 08/05 A3005 RMK A01 T00760052  RH  085%=      5-min Rain = 0
KPD2 240555Z 32005KT 08/05 A3005 RMK A01 T00750051  RH  085%=      5-min Rain = 0
KPD2 240556Z 32005KT 08/05 A3005 RMK A01 T00750051  RH  085%=      5-min Rain = 0
KPD2 240557Z 32006KT 08/05 A3005 RMK A01 T00750051  RH  085%=      5-min Rain = 0
KPD2 240558Z 31005KT 08/05 A3005 RMK A01 T00750051  RH  085%=      5-min Rain = 0
KPD2 240559Z 32005KT 08/05 A3005 RMK A01 T00750050  RH  084%=      5-min Rain = 0
KPD2 240600Z 31004G9KT 08/05 A3005 RMK A01 T00750050  RH  084%=      5-min Rain = 0
KPD2 240601Z 30005KT 08/05 A3005 RMK A01 T00760050  RH  084%=      5-min Rain = 0
KPD2 240602Z 30006KT 08/05 A3004 RMK A01 T00760050  RH  084%=      5-min Rain = 0
KPD2 240603Z 32004KT 08/05 A3004 RMK A01 T00760049  RH  083%=      5-min Rain = 0
KPD2 240604Z 30005KT 08/05 A3004 RMK A01 T00760050  RH  083%=      5-min Rain = 0
KPD2 240605Z 30003KT 08/05 A3004 RMK A01 T00760050  RH  083%=      5-min Rain = 0
KPD2 240606Z 30004KT 08/05 A3004 RMK A01 T00770050  RH  083%=      5-min Rain = 0
KPD2 240607Z 29005KT 08/05 A3004 RMK A01 T00770049  RH  083%=      5-min Rain = 0
KPD2 240608Z 30005KT 08/05 A3004 RMK A01 T00770050  RH  083%=      5-min Rain = 0
KPD2 240609Z 30006KT 08/05 A3004 RMK A01 T00770050  RH  083%=      5-min Rain = 0
KPD2 240610Z 30005KT 08/05 A3004 RMK A01 T00770049  RH  083%=      5-min Rain = 0
KPD2 240611Z 31004KT 08/05 A3004 RMK A01 T00770049  RH  083%=      5-min Rain = 0
KPD2 240612Z 32004KT 08/05 A3004 RMK A01 T00770049  RH  083%=      5-min Rain = 0
KPD2 240613Z 32004KT 08/05 A3004 RMK A01 T00770049  RH  083%=      5-min Rain = 0
KPD2 240614Z 30005KT 08/05 A3004 RMK A01 T00770049  RH  083%=      5-min Rain = 0
KPD2 240615Z 29003KT 08/05 A3004 RMK A01 T00770049  RH  083%=      5-min Rain = 0
KPD2 240616Z 31004KT 08/05 A3004 RMK A01 T00770049  RH  082%=      5-min Rain = 0
KPD2 240617Z 28007KT 08/05 A3004 RMK A01 T00770048  RH  082%=      5-min Rain = 0
KPD2 240618Z 29007KT 08/05 A3004 RMK A01 T00790048  RH  081%=      5-min Rain = 0
KPD2 240619Z 31005KT 08/05 A3004 RMK A01 T00800048  RH  080%=      5-min Rain = 0
KPD2 240620Z 30006KT 08/05 A3004 RMK A01 T00810047  RH  080%=      5-min Rain = 0
KPD2 240621Z 31006KT 08/05 A3004 RMK A01 T00810047  RH  079%=      5-min Rain = 0
KPD2 240622Z 31006KT 08/05 A3004 RMK A01 T00810048  RH  079%=      5-min Rain = 0
KPD2 240623Z 30005KT 08/05 A3004 RMK A01 T00810047  RH  079%=      5-min Rain = 0
KPD2 240624Z 30005KT 08/05 A3004 RMK A01 T00810047  RH  079%=      5-min Rain = 0
KPD2 240625Z 29006KT 08/05 A3004 RMK A01 T00810047  RH  079%=      5-min Rain = 0
KPD2 240626Z 30005KT 08/05 A3004 RMK A01 T00810046  RH  079%=      5-min Rain = 0
KPD2 240627Z 31004KT 08/05 A3004 RMK A01 T00810046  RH  079%=      5-min Rain = 0
KPD2 240628Z 31004KT 08/05 A3004 RMK A01 T00800046  RH  079%=      5-min Rain = 0
KPD2 240629Z 31004KT 08/05 A3004 RMK A01 T00800047  RH  079%=      5-min Rain = 0
KPD2 240630Z 32004KT 08/05 A3004 RMK A01 T00790046  RH  080%=      5-min Rain = 0
KPD2 240631Z 32004KT 08/05 A3003 RMK A01 T00790046  RH  080%=      5-min Rain = 0
KPD2 240632Z 31004KT 08/05 A3003 RMK A01 T00780047  RH  080%=      5-min Rain = 0
KPD2 240633Z 32004KT 08/05 A3003 RMK A01 T00780046  RH  080%=      5-min Rain = 0
KPD2 240634Z 32004KT 08/05 A3003 RMK A01 T00770046  RH  080%=      5-min Rain = 0
KPD2 240635Z 33003KT 08/05 A3003 RMK A01 T00770046  RH  080%=      5-min Rain = 0
KPD2 240636Z 31003KT 08/05 A3003 RMK A01 T00770046  RH  081%=      5-min Rain = 0
KPD2 240637Z 31004KT 08/05 A3003 RMK A01 T00770046  RH  081%=      5-min Rain = 0
KPD2 240638Z 31006KT 08/05 A3003 RMK A01 T00770045  RH  081%=      5-min Rain = 0
KPD2 240639Z 30004KT 08/05 A3003 RMK A01 T00770045  RH  080%=      5-min Rain = 0
KPD2 240640Z 31004KT 08/05 A3003 RMK A01 T00770045  RH  080%=      5-min Rain = 0
KPD2 240641Z 31005KT 08/04 A3003 RMK A01 T00770044  RH  080%=      5-min Rain = 0
KPD2 240642Z 30004KT 08/04 A3003 RMK A01 T00770044  RH  080%=      5-min Rain = 0
KPD2 240643Z 30005KT 08/05 A3003 RMK A01 T00770045  RH  080%=      5-min Rain = 0
KPD2 240644Z 31003KT 08/05 A3003 RMK A01 T00770045  RH  080%=      5-min Rain = 0
KPD2 240645Z 30006KT 08/05 A3003 RMK A01 T00770045  RH  080%=      5-min Rain = 0
KPD2 240646Z 30004KT 08/05 A3003 RMK A01 T00780045  RH  080%=      5-min Rain = 0
KPD2 240647Z 30004KT 08/05 A3003 RMK A01 T00770045  RH  080%=      5-min Rain = 0
KPD2 240648Z 31005KT 08/05 A3003 RMK A01 T00770045  RH  080%=      5-min Rain = 0
KPD2 240649Z 31004KT 08/05 A3003 RMK A01 T00760045  RH  080%=      5-min Rain = 0
KPD2 240650Z 30004KT 08/05 A3003 RMK A01 T00760045  RH  081%=      5-min Rain = 0
KPD2 240651Z 30004KT 08/05 A3003 RMK A01 T00760045  RH  081%=      5-min Rain = 0
KPD2 240652Z 31003KT 08/05 A3003 RMK A01 T00750045  RH  081%=      5-min Rain = 0
KPD2 240653Z 29003KT 08/05 A3002 RMK A01 T00750045  RH  081%=      5-min Rain = 0
KPD2 240654Z 29003KT 08/05 A3002 RMK A01 T00750045  RH  081%=      5-min Rain = 0
KPD2 240655Z 30003KT 08/05 A3002 RMK A01 T00750045  RH  081%=      5-min Rain = 0
KPD2 240656Z 31003KT 07/05 A3002 RMK A01 T00740045  RH  081%=      5-min Rain = 0
KPD2 240657Z 32003KT 07/04 A3002 RMK A01 T00740044  RH  082%=      5-min Rain = 0
KPD2 240658Z 29003KT 07/04 A3002 RMK A01 T00740044  RH  082%=      5-min Rain = 0
KPD2 240659Z 30003KT 07/05 A3002 RMK A01 T00740045  RH  082%=      5-min Rain = 0
KPD2 240700Z 28004KT 07/05 A3002 RMK A01 T00740045  RH  082%=      5-min Rain = 0
KPD2 240701Z 29005KT 07/04 A3002 RMK A01 T00740044  RH  082%=      5-min Rain = 0
KPD2 240702Z 28005KT 07/05 A3002 RMK A01 T00740045  RH  082%=      5-min Rain = 0
KPD2 240703Z 29005KT 08/05 A3002 RMK A01 T00750045  RH  081%=      5-min Rain = 0
KPD2 240704Z 30004KT 08/04 A3002 RMK A01 T00750044  RH  081%=      5-min Rain = 0
KPD2 240705Z 30003KT 08/04 A3002 RMK A01 T00750044  RH  081%=      5-min Rain = 0
KPD2 240706Z 31003KT 07/04 A3002 RMK A01 T00740044  RH  081%=      5-min Rain = 0
KPD2 240707Z 29004KT 07/04 A3002 RMK A01 T00740044  RH  081%=      5-min Rain = 0
KPD2 240708Z 29006KT 07/04 A3002 RMK A01 T00740044  RH  081%=      5-min Rain = 0
KPD2 240709Z 30004KT 08/04 A3002 RMK A01 T00750044  RH  081%=      5-min Rain = 0
KPD2 240710Z 29004KT 08/04 A3002 RMK A01 T00750044  RH  081%=      5-min Rain = 0
KPD2 240711Z 29007KT 08/04 A3002 RMK A01 T00750044  RH  081%=      5-min Rain = 0
KPD2 240712Z 29005KT 08/04 A3002 RMK A01 T00760044  RH  080%=      5-min Rain = 0
KPD2 240713Z 29005KT 08/04 A3002 RMK A01 T00770044  RH  079%=      5-min Rain = 0
KPD2 240714Z 29005KT 08/04 A3002 RMK A01 T00780043  RH  079%=      5-min Rain = 0
KPD2 240715Z 30004KT 08/04 A3002 RMK A01 T00780043  RH  079%=      5-min Rain = 0
KPD2 240716Z 32005KT 08/04 A3002 RMK A01 T00780043  RH  079%=      5-min Rain = 0
KPD2 240717Z 31005KT 08/04 A3002 RMK A01 T00770043  RH  079%=      5-min Rain = 0
KPD2 240718Z 32004KT 08/04 A3002 RMK A01 T00760043  RH  080%=      5-min Rain = 0
KPD2 240719Z 31005KT 08/04 A3002 RMK A01 T00760043  RH  080%=      5-min Rain = 0
KPD2 240720Z 32003KT 08/04 A3002 RMK A01 T00750043  RH  080%=      5-min Rain = 0
KPD2 240721Z 31004KT 08/04 A3002 RMK A01 T00750043  RH  080%=      5-min Rain = 0
KPD2 240722Z 31004KT 07/04 A3002 RMK A01 T00740043  RH  081%=      5-min Rain = 0
KPD2 240723Z 31005KT 07/04 A3002 RMK A01 T00740043  RH  081%=      5-min Rain = 0
KPD2 240724Z 31005KT 07/04 A3002 RMK A01 T00730043  RH  081%=      5-min Rain = 0
KPD2 240725Z 32005KT 07/04 A3002 RMK A01 T00740043  RH  081%=      5-min Rain = 0
KPD2 240726Z 31004KT 07/04 A3002 RMK A01 T00730043  RH  081%=      5-min Rain = 0
KPD2 240727Z 31003KT 07/04 A3002 RMK A01 T00730042  RH  081%=      5-min Rain = 0
KPD2 240728Z 31004KT 07/04 A3001 RMK A01 T00740042  RH  080%=      5-min Rain = 0
KPD2 240729Z 30003KT 07/04 A3001 RMK A01 T00740042  RH  080%=      5-min Rain = 0
KPD2 240730Z 30003KT 07/04 A3001 RMK A01 T00740042  RH  080%=      5-min Rain = 0
KPD2 240731Z 31003KT 07/04 A3001 RMK A01 T00740042  RH  080%=      5-min Rain = 0
KPD2 240732Z 30004KT 07/04 A3001 RMK A01 T00740042  RH  080%=      5-min Rain = 0
KPD2 240733Z 30004KT 07/04 A3001 RMK A01 T00730041  RH  080%=      5-min Rain = 0
KPD2 240734Z 30004KT 07/04 A3001 RMK A01 T00730042  RH  080%=      5-min Rain = 0
KPD2 240735Z 31004KT 07/04 A3001 RMK A01 T00730041  RH  080%=      5-min Rain = 0
KPD2 240736Z 29004KT 07/04 A3001 RMK A01 T00730041  RH  080%=      5-min Rain = 0
KPD2 240737Z 30003KT 07/04 A3001 RMK A01 T00730041  RH  080%=      5-min Rain = 0
KPD2 240738Z 30004KT 07/04 A3001 RMK A01 T00740041  RH  080%=      5-min Rain = 0
KPD2 240739Z 31004KT 07/04 A3001 RMK A01 T00740041  RH  080%=      5-min Rain = 0
KPD2 240740Z 31003KT 07/04 A3001 RMK A01 T00740041  RH  080%=      5-min Rain = 0
KPD2 240741Z 34002KT 07/04 A30 RMK A01 T00730040  RH  080%=      5-min Rain = 0
KPD2 240742Z 32002KT 07/04 A30 RMK A01 T00730041  RH  080%=      5-min Rain = 0
KPD2 240743Z 33002KT 07/04 A30 RMK A01 T00730041  RH  080%=      5-min Rain = 0
KPD2 240744Z 35002KT 07/04 A30 RMK A01 T00720040  RH  080%=      5-min Rain = 0
KPD2 240745Z 35002KT 07/04 A30 RMK A01 T00720041  RH  081%=      5-min Rain = 0
KPD2 240746Z 36002KT 07/04 A30 RMK A01 T00720041  RH  081%=      5-min Rain = 0
KPD2 240747Z 36001KT 07/04 A30 RMK A01 T00720041  RH  081%=      5-min Rain = 0
KPD2 240748Z 33002KT 07/04 A2999 RMK A01 T00710041  RH  081%=      5-min Rain = 0
KPD2 240749Z 34002KT 07/04 A2999 RMK A01 T00710040  RH  081%=      5-min Rain = 0
KPD2 240750Z 33003KT 07/04 A2999 RMK A01 T00710040  RH  081%=      5-min Rain = 0
KPD2 240751Z 35001KT 07/04 A2999 RMK A01 T00710040  RH  081%=      5-min Rain = 0
KPD2 240752Z 34000KT 07/04 A2999 RMK A01 T00710040  RH  081%=      5-min Rain = 0
KPD2 240753Z 36001KT 07/04 A2999 RMK A01 T00710040  RH  081%=      5-min Rain = 0
KPD2 240754Z 33002KT 07/04 A2999 RMK A01 T00710040  RH  081%=      5-min Rain = 0
KPD2 240755Z 31001KT 07/04 A2999 RMK A01 T00710040  RH  081%=      5-min Rain = 0
KPD2 240756Z 35001KT 07/04 A2999 RMK A01 T00700040  RH  081%=      5-min Rain = 0
KPD2 240757Z 32002KT 07/04 A2999 RMK A01 T00710039  RH  081%=      5-min Rain = 0
KPD2 240758Z 32000KT 07/04 A2999 RMK A01 T00710039  RH  080%=      5-min Rain = 0
KPD2 240759Z 00000KT 07/04 A2999 RMK A01 T00710039  RH  080%=      5-min Rain = 0
KPD2 240800Z 32000KT 07/04 A2999 RMK A01 T00720039  RH  080%=      5-min Rain = 0
KPD2 240801Z 32000KT 07/04 A2999 RMK A01 T00720039  RH  080%=      5-min Rain = 0
KPD2 240802Z 32000KT 07/04 A2999 RMK A01 T00720039  RH  080%=      5-min Rain = 0
KPD2 240803Z 00000KT 07/04 A2999 RMK A01 T00720039  RH  080%=      5-min Rain = 0
KPD2 240804Z 02000KT 07/04 A2999 RMK A01 T00720040  RH  080%=      5-min Rain = 0
KPD2 240805Z 11000KT 07/04 A2999 RMK A01 T00720040  RH  080%=      5-min Rain = 0
KPD2 240806Z 11001KT 07/04 A2999 RMK A01 T00720041  RH  080%=      5-min Rain = 0
KPD2 240807Z 11001KT 07/04 A2999 RMK A01 T00730041  RH  081%=      5-min Rain = 0
KPD2 240808Z 10002KT 07/04 A2999 RMK A01 T00720041  RH  080%=      5-min Rain = 0
KPD2 240809Z 10001KT 07/04 A2999 RMK A01 T00720040  RH  080%=      5-min Rain = 0
KPD2 240810Z 10001KT 07/04 A2999 RMK A01 T00710041  RH  081%=      5-min Rain = 0
KPD2 240811Z 10001KT 07/04 A2999 RMK A01 T00710041  RH  081%=      5-min Rain = 0
KPD2 240812Z 10002KT 07/04 A30 RMK A01 T00700041  RH  081%=      5-min Rain = 0
KPD2 240813Z 11002KT 07/04 A30 RMK A01 T00700041  RH  082%=      5-min Rain = 0
KPD2 240814Z 11002KT 07/04 A30 RMK A01 T00700041  RH  082%=      5-min Rain = 0
KPD2 240815Z 12002KT 07/04 A30 RMK A01 T00700041  RH  081%=      5-min Rain = 0
KPD2 240816Z 10001KT 07/04 A30 RMK A01 T00710041  RH  081%=      5-min Rain = 0
KPD2 240817Z 09001KT 07/04 A30 RMK A01 T00710040  RH  081%=      5-min Rain = 0
KPD2 240818Z 12001KT 07/04 A30 RMK A01 T00710040  RH  080%=      5-min Rain = 0
KPD2 240819Z 15001KT 07/04 A30 RMK A01 T00720040  RH  080%=      5-min Rain = 0
KPD2 240820Z 15001KT 07/04 A30 RMK A01 T00730041  RH  080%=      5-min Rain = 0
KPD2 240821Z 15001KT 07/04 A30 RMK A01 T00730041  RH  080%=      5-min Rain = 0
KPD2 240822Z 15001KT 07/04 A30 RMK A01 T00730041  RH  080%=      5-min Rain = 0
KPD2 240823Z 15001KT 07/04 A30 RMK A01 T00730040  RH  080%=      5-min Rain = 0
KPD2 240824Z 15000KT 07/04 A30 RMK A01 T00730040  RH  079%=      5-min Rain = 0
KPD2 240825Z 00000KT 07/04 A30 RMK A01 T00730040  RH  079%=      5-min Rain = 0
KPD2 240826Z 15000KT 07/04 A30 RMK A01 T00730040  RH  079%=      5-min Rain = 0
KPD2 240827Z 13001KT 07/04 A30 RMK A01 T00730040  RH  080%=      5-min Rain = 0
KPD2 240828Z 12002KT 07/04 A30 RMK A01 T00730039  RH  079%=      5-min Rain = 0
KPD2 240829Z 12001KT 07/04 A30 RMK A01 T00720040  RH  080%=      5-min Rain = 0
KPD2 240830Z 12001KT 07/04 A30 RMK A01 T00710040  RH  080%=      5-min Rain = 0
KPD2 240831Z 12003KT 07/04 A30 RMK A01 T00710040  RH  081%=      5-min Rain = 0
KPD2 240832Z 11003KT 07/04 A30 RMK A01 T00700041  RH  082%=      5-min Rain = 0
KPD2 240833Z 11003KT 07/04 A30 RMK A01 T00700042  RH  082%=      5-min Rain = 0
KPD2 240834Z 11003KT 07/04 A30 RMK A01 T00700043  RH  083%=      5-min Rain = 0
KPD2 240835Z 10003KT 07/04 A30 RMK A01 T00700042  RH  083%=      5-min Rain = 0
KPD2 240836Z 11003KT 07/04 A30 RMK A01 T00690043  RH  083%=      5-min Rain = 0
KPD2 240837Z 11002KT 07/04 A2999 RMK A01 T00690043  RH  083%=      5-min Rain = 0
KPD2 240838Z 11002KT 07/04 A2999 RMK A01 T00690043  RH  083%=      5-min Rain = 0
KPD2 240839Z 11002KT 07/04 A2999 RMK A01 T00690043  RH  083%=      5-min Rain = 0
KPD2 240840Z 12002KT 07/04 A2999 RMK A01 T00690043  RH  083%=      5-min Rain = 0
KPD2 240841Z 12002KT 07/04 A2999 RMK A01 T00690043  RH  084%=      5-min Rain = 0
KPD2 240842Z 13003KT 07/04 A30 RMK A01 T00700044  RH  084%=      5-min Rain = 0
KPD2 240843Z 12003KT 07/04 A30 RMK A01 T00700044  RH  084%=      5-min Rain = 0
KPD2 240844Z 12003KT 07/04 A30 RMK A01 T00690044  RH  084%=      5-min Rain = 0
KPD2 240845Z 12003KT 07/04 A30 RMK A01 T00690044  RH  084%=      5-min Rain = 0
KPD2 240846Z 11003KT 07/04 A30 RMK A01 T00680044  RH  084%=      5-min Rain = 0
KPD2 240847Z 12003KT 07/04 A30 RMK A01 T00680044  RH  085%=      5-min Rain = 0
KPD2 240848Z 12004KT 07/04 A30 RMK A01 T00680044  RH  085%=      5-min Rain = 0
KPD2 240849Z 12003KT 07/04 A30 RMK A01 T00670044  RH  085%=      5-min Rain = 0
KPD2 240850Z 11003KT 07/04 A30 RMK A01 T00670044  RH  085%=      5-min Rain = 0
KPD2 240851Z 11003KT 07/04 A30 RMK A01 T00670044  RH  086%=      5-min Rain = 0
KPD2 240852Z 12004KT 07/04 A30 RMK A01 T00670044  RH  086%=      5-min Rain = 0
KPD2 240853Z 12004KT 07/05 A30 RMK A01 T00670045  RH  086%=      5-min Rain = 0
KPD2 240854Z 12005KT 07/04 A30 RMK A01 T00670044  RH  086%=      5-min Rain = 0
KPD2 240855Z 12004KT 07/04 A30 RMK A01 T00670044  RH  086%=      5-min Rain = 0
KPD2 240856Z 12003KT 07/04 A3001 RMK A01 T00660043  RH  085%=      5-min Rain = 0
KPD2 240857Z 11003KT 07/04 A3001 RMK A01 T00660043  RH  086%=      5-min Rain = 0
KPD2 240858Z 10002KT 07/04 A3001 RMK A01 T00660043  RH  085%=      5-min Rain = 0
KPD2 240859Z 10004KT 07/04 A3001 RMK A01 T00660043  RH  085%=      5-min Rain = 0
KPD2 240900Z 11004KT 07/04 A3001 RMK A01 T00670044  RH  085%=      5-min Rain = 0
KPD2 240901Z 12003KT 07/04 A3001 RMK A01 T00670044  RH  085%=      5-min Rain = 0
KPD2 240902Z 11004KT 07/04 A3001 RMK A01 T00670044  RH  085%=      5-min Rain = 0
KPD2 240903Z 10004KT 07/04 A3001 RMK A01 T00670044  RH  085%=      5-min Rain = 0
KPD2 240904Z 10003KT 07/04 A3001 RMK A01 T00670043  RH  084%=      5-min Rain = 0
KPD2 240905Z 11003KT 07/04 A3001 RMK A01 T00680043  RH  084%=      5-min Rain = 0
KPD2 240906Z 11004KT 07/04 A3001 RMK A01 T00690043  RH  084%=      5-min Rain = 0
KPD2 240907Z 11004KT 07/04 A3001 RMK A01 T00690043  RH  083%=      5-min Rain = 0
KPD2 240908Z 11003KT 07/04 A3001 RMK A01 T00700043  RH  083%=      5-min Rain = 0
KPD2 240909Z 12003KT 07/04 A3001 RMK A01 T00700044  RH  083%=      5-min Rain = 0
KPD2 240910Z 09002KT 07/04 A3001 RMK A01 T00700044  RH  083%=      5-min Rain = 0
KPD2 240911Z 11002KT 07/04 A3001 RMK A01 T00700044  RH  083%=      5-min Rain = 0
KPD2 240912Z 10003KT 07/04 A3001 RMK A01 T00690043  RH  083%=      5-min Rain = 0
KPD2 240913Z 10003KT 07/04 A3001 RMK A01 T00690043  RH  083%=      5-min Rain = 0
KPD2 240914Z 11002KT 07/04 A3001 RMK A01 T00700042  RH  083%=      5-min Rain = 0
KPD2 240915Z 10002KT 07/04 A3001 RMK A01 T00700042  RH  083%=      5-min Rain = 0
KPD2 240916Z 10001KT 07/04 A3001 RMK A01 T00690042  RH  083%=      5-min Rain = 0
KPD2 240917Z 10001KT 07/04 A3001 RMK A01 T00680040  RH  083%=      5-min Rain = 0
KPD2 240918Z 11002KT 07/04 A3001 RMK A01 T00670039  RH  083%=      5-min Rain = 0
KPD2 240919Z 10001KT 07/04 A3001 RMK A01 T00650039  RH  083%=      5-min Rain = 0
KPD2 240920Z 12001KT 06/04 A3001 RMK A01 T00640038  RH  084%=      5-min Rain = 0
KPD2 240921Z 21000KT 06/04 A3001 RMK A01 T00620037  RH  084%=      5-min Rain = 0
KPD2 240922Z 21002KT 06/04 A3001 RMK A01 T00600037  RH  085%=      5-min Rain = 0
KPD2 240923Z 21002KT 06/04 A30 RMK A01 T00590037  RH  086%=      5-min Rain = 0
KPD2 240924Z 21002KT 06/04 A30 RMK A01 T00580037  RH  087%=      5-min Rain = 0
KPD2 240925Z 21002KT 06/04 A30 RMK A01 T00570037  RH  087%=      5-min Rain = 0
KPD2 240926Z 21000KT 06/04 A30 RMK A01 T00560037  RH  088%=      5-min Rain = 0
KPD2 240927Z 25001KT 06/04 A30 RMK A01 T00550037  RH  088%=      5-min Rain = 0
KPD2 240928Z 33001KT 05/04 A30 RMK A01 T00540036  RH  088%=      5-min Rain = 0
KPD2 240929Z 33001KT 05/04 A30 RMK A01 T00530036  RH  089%=      5-min Rain = 0
KPD2 240930Z 33001KT 05/04 A30 RMK A01 T00520035  RH  089%=      5-min Rain = 0
KPD2 240931Z 33001KT 05/04 A30 RMK A01 T00510036  RH  089%=      5-min Rain = 0
KPD2 240932Z 33001KT 05/04 A30 RMK A01 T00510036  RH  090%=      5-min Rain = 0
KPD2 240933Z 33001KT 05/04 A30 RMK A01 T00510037  RH  090%=      5-min Rain = 0
KPD2 240934Z 33001KT 05/04 A30 RMK A01 T00510037  RH  091%=      5-min Rain = 0
KPD2 240935Z 33001KT 05/04 A30 RMK A01 T00510037  RH  091%=      5-min Rain = 0
KPD2 240936Z 33001KT 05/04 A30 RMK A01 T00510037  RH  091%=      5-min Rain = 0
KPD2 240937Z 33001KT 05/04 A30 RMK A01 T00510037  RH  091%=      5-min Rain = 0
KPD2 240938Z 33001KT 05/04 A30 RMK A01 T00500038  RH  091%=      5-min Rain = 0
KPD2 240939Z 33001KT 05/04 A30 RMK A01 T00500038  RH  092%=      5-min Rain = 0
KPD2 240940Z 33001KT 05/04 A30 RMK A01 T00510039  RH  092%=      5-min Rain = 0
KPD2 240941Z 00000KT 05/04 A30 RMK A01 T00510039  RH  092%=      5-min Rain = 0
KPD2 240942Z 00000KT 05/04 A30 RMK A01 T00510040  RH  092%=      5-min Rain = 0
KPD2 240943Z 00000KT 05/04 A30 RMK A01 T00510040  RH  092%=      5-min Rain = 0
KPD2 240944Z 00000KT 05/04 A30 RMK A01 T00520041  RH  092%=      5-min Rain = 0
KPD2 240945Z 00000KT 05/04 A30 RMK A01 T00530042  RH  093%=      5-min Rain = 0
KPD2 240946Z 00000KT 05/04 A30 RMK A01 T00530042  RH  093%=      5-min Rain = 0
KPD2 240947Z 00000KT 05/04 A30 RMK A01 T00530042  RH  092%=      5-min Rain = 0
KPD2 240948Z 00000KT 05/04 A30 RMK A01 T00540042  RH  092%=      5-min Rain = 0
KPD2 240949Z 00000KT 05/04 A30 RMK A01 T00540042  RH  092%=      5-min Rain = 0
KPD2 240950Z 00000KT 05/04 A30 RMK A01 T00540042  RH  092%=      5-min Rain = 0
KPD2 240951Z 00000KT 06/04 A30 RMK A01 T00550043  RH  092%=      5-min Rain = 0
KPD2 240952Z 00000KT 06/04 A30 RMK A01 T00550043  RH  092%=      5-min Rain = 0
KPD2 240953Z 00000KT 06/04 A30 RMK A01 T00560043  RH  092%=      5-min Rain = 0
KPD2 240954Z 00000KT 06/04 A30 RMK A01 T00560043  RH  092%=      5-min Rain = 0
KPD2 240955Z 00000KT 06/04 A30 RMK A01 T00560043  RH  091%=      5-min Rain = 0
KPD2 240956Z 33001KT 06/04 A30 RMK A01 T00560043  RH  091%=      5-min Rain = 0
KPD2 240957Z 33002KT 06/04 A2999 RMK A01 T00550042  RH  091%=      5-min Rain = 0
KPD2 240958Z 33002KT 06/04 A2999 RMK A01 T00550042  RH  091%=      5-min Rain = 0
KPD2 240959Z 33002KT 05/04 A2999 RMK A01 T00540041  RH  091%=      5-min Rain = 0
KPD2 241000Z 33002KT 05/04 A2999 RMK A01 T00530040  RH  091%=      5-min Rain = 0
KPD2 241001Z 33001KT 05/04 A2999 RMK A01 T00530039  RH  091%=      5-min Rain = 0
KPD2 241002Z 33000KT 05/04 A30 RMK A01 T00520039  RH  091%=      5-min Rain = 0
KPD2 241003Z 00000KT 05/04 A30 RMK A01 T00520039  RH  091%=      5-min Rain = 0
KPD2 241004Z 33000KT 05/04 A30 RMK A01 T00520040  RH  092%=      5-min Rain = 0
KPD2 241005Z 19001KT 05/04 A30 RMK A01 T00530041  RH  092%=      5-min Rain = 0
KPD2 241006Z 18003KT 05/04 A30 RMK A01 T00530040  RH  092%=      5-min Rain = 0
KPD2 241007Z 18002KT 05/04 A30 RMK A01 T00510038  RH  091%=      5-min Rain = 0
KPD2 241008Z 18001KT 05/04 A30 RMK A01 T00500037  RH  091%=      5-min Rain = 0
KPD2 241009Z 17000KT 05/04 A30 RMK A01 T00490036  RH  092%=      5-min Rain = 0
KPD2 241010Z 00000KT 05/04 A30 RMK A01 T00480036  RH  092%=      5-min Rain = 0
KPD2 241011Z 00000KT 05/04 A30 RMK A01 T00470036  RH  092%=      5-min Rain = 0
KPD2 241012Z 00000KT 05/04 A30 RMK A01 T00470036  RH  093%=      5-min Rain = 0
KPD2 241013Z 00000KT 05/04 A30 RMK A01 T00480037  RH  093%=      5-min Rain = 0
KPD2 241014Z 00000KT 05/04 A30 RMK A01 T00470037  RH  093%=      5-min Rain = 0
KPD2 241015Z 00000KT 05/04 A30 RMK A01 T00470037  RH  093%=      5-min Rain = 0
KPD2 241016Z 00000KT 05/04 A30 RMK A01 T00470037  RH  093%=      5-min Rain = 0
KPD2 241017Z 00000KT 05/04 A30 RMK A01 T00470037  RH  093%=      5-min Rain = 0
KPD2 241018Z 00000KT 05/04 A30 RMK A01 T00470038  RH  094%=      5-min Rain = 0
KPD2 241019Z 00000KT 05/04 A30 RMK A01 T00480039  RH  094%=      5-min Rain = 0
KPD2 241020Z 17000KT 05/04 A30 RMK A01 T00480039  RH  094%=      5-min Rain = 0
KPD2 241021Z 10001KT 05/04 A3001 RMK A01 T00480040  RH  094%=      5-min Rain = 0
KPD2 241022Z 01002KT 05/04 A3001 RMK A01 T00490040  RH  094%=      5-min Rain = 0
KPD2 241023Z 36002KT 05/04 A3001 RMK A01 T00470038  RH  094%=      5-min Rain = 0
KPD2 241024Z 35003KT 05/04 A3001 RMK A01 T00470038  RH  094%=      5-min Rain = 0
KPD2 241025Z 35003KT 05/04 A3001 RMK A01 T00460037  RH  094%=      5-min Rain = 0
KPD2 241026Z 35003KT 05/04 A3001 RMK A01 T00460037  RH  094%=      5-min Rain = 0
KPD2 241027Z 35003KT 05/04 A30 RMK A01 T00450036  RH  094%=      5-min Rain = 0
KPD2 241028Z 35003KT 05/04 A30 RMK A01 T00460037  RH  094%=      5-min Rain = 0
KPD2 241029Z 35002KT 05/04 A30 RMK A01 T00460037  RH  094%=      5-min Rain = 0
KPD2 241030Z 35002KT 05/04 A30 RMK A01 T00450037  RH  094%=      5-min Rain = 0
KPD2 241031Z 35001KT 05/04 A3001 RMK A01 T00460037  RH  094%=      5-min Rain = 0
KPD2 241032Z 35000KT 05/04 A3001 RMK A01 T00450037  RH  094%=      5-min Rain = 0
KPD2 241033Z 00000KT 04/04 A3001 RMK A01 T00440036  RH  094%=      5-min Rain = 0
KPD2 241034Z 00000KT 04/04 A3001 RMK A01 T00440036  RH  094%=      5-min Rain = 0
KPD2 241035Z 00000KT 04/04 A3001 RMK A01 T00440036  RH  094%=      5-min Rain = 0
KPD2 241036Z 00000KT 04/04 A3001 RMK A01 T00440036  RH  095%=      5-min Rain = 0
KPD2 241037Z 30001KT 04/04 A3001 RMK A01 T00430035  RH  094%=      5-min Rain = 0
KPD2 241038Z 30002KT 04/03 A3001 RMK A01 T00420034  RH  094%=      5-min Rain = 0
KPD2 241039Z 30001KT 04/03 A3001 RMK A01 T00420034  RH  095%=      5-min Rain = 0
KPD2 241040Z 30000KT 04/03 A3001 RMK A01 T00420034  RH  095%=      5-min Rain = 0
KPD2 241041Z 30000KT 04/03 A3001 RMK A01 T00410034  RH  095%=      5-min Rain = 0
KPD2 241042Z 30001KT 04/03 A3001 RMK A01 T00410033  RH  095%=      5-min Rain = 0
KPD2 241043Z 31001KT 04/03 A3001 RMK A01 T00410034  RH  095%=      5-min Rain = 0
KPD2 241044Z 33002KT 04/04 A3001 RMK A01 T00420035  RH  095%=      5-min Rain = 0
KPD2 241045Z 34002KT 04/04 A3001 RMK A01 T00430036  RH  096%=      5-min Rain = 0
KPD2 241046Z 35002KT 04/04 A3001 RMK A01 T00430036  RH  096%=      5-min Rain = 0
KPD2 241047Z 35002KT 04/04 A3001 RMK A01 T00430036  RH  096%=      5-min Rain = 0
KPD2 241048Z 36002KT 04/04 A3001 RMK A01 T00430036  RH  096%=      5-min Rain = 0
KPD2 241049Z 01002KT 04/04 A3001 RMK A01 T00430036  RH  096%=      5-min Rain = 0
KPD2 241050Z 00002KT 04/04 A3001 RMK A01 T00430036  RH  096%=      5-min Rain = 0
KPD2 241051Z 36002KT 04/04 A3001 RMK A01 T00430036  RH  096%=      5-min Rain = 0
KPD2 241052Z 00001KT 04/04 A3001 RMK A01 T00420036  RH  096%=      5-min Rain = 0
KPD2 241053Z 00001KT 04/04 A3001 RMK A01 T00420036  RH  096%=      5-min Rain = 0
KPD2 241054Z 00000KT 04/04 A3001 RMK A01 T00420036  RH  096%=      5-min Rain = 0
KPD2 241055Z 00000KT 04/04 A3001 RMK A01 T00420036  RH  096%=      5-min Rain = 0
KPD2 241056Z 28000KT 04/04 A30 RMK A01 T00420036  RH  096%=      5-min Rain = 0
KPD2 241057Z 26002KT 04/04 A30 RMK A01 T00420036  RH  096%=      5-min Rain = 0
KPD2 241058Z 26002KT 04/04 A30 RMK A01 T00420036  RH  096%=      5-min Rain = 0
KPD2 241059Z 26002KT 04/04 A30 RMK A01 T00410035  RH  096%=      5-min Rain = 0
KPD2 241100Z 27002KT 04/03 A30 RMK A01 T00410034  RH  096%=      5-min Rain = 0
KPD2 241101Z 28002KT 04/03 A30 RMK A01 T00400034  RH  095%=      5-min Rain = 0
KPD2 241102Z 30002KT 04/03 A30 RMK A01 T00390033  RH  095%=      5-min Rain = 0
KPD2 241103Z 31001KT 04/03 A30 RMK A01 T00390032  RH  095%=      5-min Rain = 0
KPD2 241104Z 32002KT 04/03 A30 RMK A01 T00390032  RH  096%=      5-min Rain = 0
KPD2 241105Z 32002KT 04/03 A30 RMK A01 T00380032  RH  096%=      5-min Rain = 0
KPD2 241106Z 30002KT 04/03 A2999 RMK A01 T00380032  RH  096%=      5-min Rain = 0
KPD2 241107Z 28002KT 04/03 A30 RMK A01 T00380031  RH  096%=      5-min Rain = 0
KPD2 241108Z 26002KT 04/03 A30 RMK A01 T00370031  RH  096%=      5-min Rain = 0
KPD2 241109Z 25002KT 04/03 A30 RMK A01 T00370031  RH  096%=      5-min Rain = 0
KPD2 241110Z 25003KT 04/03 A30 RMK A01 T00370031  RH  096%=      5-min Rain = 0
KPD2 241111Z 26002KT 04/03 A30 RMK A01 T00370031  RH  096%=      5-min Rain = 0
KPD2 241112Z 27001KT 04/03 A30 RMK A01 T00370031  RH  096%=      5-min Rain = 0
KPD2 241113Z 29002KT 04/03 A30 RMK A01 T00370031  RH  096%=      5-min Rain = 0
KPD2 241114Z 32002KT 04/03 A30 RMK A01 T00370031  RH  096%=      5-min Rain = 0
KPD2 241115Z 01002KT 04/03 A30 RMK A01 T00370031  RH  096%=      5-min Rain = 0
KPD2 241116Z 00003KT 04/03 A30 RMK A01 T00370032  RH  096%=      5-min Rain = 0
KPD2 241117Z 00003KT 04/03 A30 RMK A01 T00370031  RH  096%=      5-min Rain = 0
KPD2 241118Z 01004KT 04/03 A30 RMK A01 T00370031  RH  096%=      5-min Rain = 0
KPD2 241119Z 01004KT 04/03 A30 RMK A01 T00370032  RH  096%=      5-min Rain = 0
KPD2 241120Z 36004KT 04/03 A30 RMK A01 T00380033  RH  097%=      5-min Rain = 0
KPD2 241121Z 35004KT 04/03 A30 RMK A01 T00380033  RH  097%=      5-min Rain = 0
KPD2 241122Z 36004KT 04/03 A30 RMK A01 T00390034  RH  097%=      5-min Rain = 0
KPD2 241123Z 01003KT 04/03 A30 RMK A01 T00390034  RH  097%=      5-min Rain = 0
KPD2 241124Z 01002KT 04/03 A2999 RMK A01 T00380033  RH  097%=      5-min Rain = 0
KPD2 241125Z 01002KT 04/03 A2999 RMK A01 T00380033  RH  097%=      5-min Rain = 0
KPD2 241126Z 34002KT 04/03 A2999 RMK A01 T00380033  RH  097%=      5-min Rain = 0
KPD2 241127Z 34002KT 04/03 A2999 RMK A01 T00380033  RH  097%=      5-min Rain = 0
KPD2 241128Z 32003KT 04/03 A2999 RMK A01 T00380033  RH  097%=      5-min Rain = 0
KPD2 241129Z 33003KT 04/03 A2999 RMK A01 T00380033  RH  097%=      5-min Rain = 0
KPD2 241130Z 33003KT 04/03 A2999 RMK A01 T00380033  RH  097%=      5-min Rain = 0
KPD2 241131Z 32002KT 04/03 A2999 RMK A01 T00380033  RH  097%=      5-min Rain = 0
KPD2 241132Z 31002KT 04/03 A2999 RMK A01 T00380033  RH  097%=      5-min Rain = 0
KPD2 241133Z 29003KT 04/03 A2999 RMK A01 T00380033  RH  097%=      5-min Rain = 0
KPD2 241134Z 27003KT 04/03 A2999 RMK A01 T00390034  RH  097%=      5-min Rain = 0
KPD2 241135Z 26003KT 04/04 A30 RMK A01 T00390035  RH  097%=      5-min Rain = 0
KPD2 241136Z 25003KT 04/03 A30 RMK A01 T00390034  RH  097%=      5-min Rain = 0
KPD2 241137Z 27002KT 04/03 A30 RMK A01 T00390034  RH  097%=      5-min Rain = 0
KPD2 241138Z 28002KT 04/03 A30 RMK A01 T00380033  RH  097%=      5-min Rain = 0
KPD2 241139Z 30002KT 04/03 A30 RMK A01 T00380033  RH  097%=      5-min Rain = 0
KPD2 241140Z 33002KT 04/03 A30 RMK A01 T00380033  RH  097%=      5-min Rain = 0
KPD2 241141Z 34002KT 04/03 A30 RMK A01 T00380033  RH  097%=      5-min Rain = 0
KPD2 241142Z 35002KT 04/03 A2999 RMK A01 T00380033  RH  097%=      5-min Rain = 0
KPD2 241143Z 35003KT 04/03 A2999 RMK A01 T00380034  RH  097%=      5-min Rain = 0
KPD2 241144Z 00003KT 04/03 A30 RMK A01 T00390034  RH  097%=      5-min Rain = 0
KPD2 241145Z 00003KT 04/03 A30 RMK A01 T00390034  RH  097%=      5-min Rain = 0
KPD2 241146Z 02002KT 04/03 A30 RMK A01 T00390034  RH  097%=      5-min Rain = 0
KPD2 241147Z 02002KT 04/04 A30 RMK A01 T00390035  RH  097%=      5-min Rain = 0
KPD2 241148Z 02002KT 04/04 A30 RMK A01 T00400036  RH  097%=      5-min Rain = 0
KPD2 241149Z 35001KT 04/04 A30 RMK A01 T00400036  RH  097%=      5-min Rain = 0
KPD2 241150Z 34001KT 04/04 A30 RMK A01 T00400036  RH  097%=      5-min Rain = 0
KPD2 241151Z 34001KT 04/04 A30 RMK A01 T00400036  RH  097%=      5-min Rain = 0
KPD2 241152Z 34001KT 04/04 A30 RMK A01 T00410036  RH  097%=      5-min Rain = 0
KPD2 241153Z 34000KT 04/04 A30 RMK A01 T00410036  RH  097%=      5-min Rain = 0
KPD2 241154Z 33000KT 04/04 A30 RMK A01 T00410036  RH  097%=      5-min Rain = 0
KPD2 241155Z 33000KT 04/04 A30 RMK A01 T00410036  RH  097%=      5-min Rain = 0
KPD2 241156Z 28000KT 04/04 A30 RMK A01 T00400035  RH  096%=      5-min Rain = 0
KPD2 241157Z 26002KT 04/03 A30 RMK A01 T00390034  RH  096%=      5-min Rain = 0
KPD2 241158Z 26002KT 04/03 A2999 RMK A01 T00390034  RH  096%=      5-min Rain = 0
KPD2 241159Z 26001KT 04/03 A2999 RMK A01 T00390033  RH  096%=      5-min Rain = 0
KPD2 241200Z 26001KT 04/03 A2999 RMK A01 T00390033  RH  096%=      5-min Rain = 0
KPD2 241201Z 22001KT 04/03 A30 RMK A01 T00390033  RH  096%=      5-min Rain = 0
KPD2 241202Z 15002KT 04/03 A30 RMK A01 T00390033  RH  096%=      5-min Rain = 0
KPD2 241203Z 15002KT 04/03 A30 RMK A01 T00390034  RH  096%=      5-min Rain = 0
KPD2 241204Z 14002KT 04/03 A30 RMK A01 T00390034  RH  096%=      5-min Rain = 0
KPD2 241205Z 17002KT 04/03 A30 RMK A01 T00390034  RH  096%=      5-min Rain = 0
KPD2 241206Z 19001KT 04/03 A30 RMK A01 T00390034  RH  096%=      5-min Rain = 0
KPD2 241207Z 15000KT 04/03 A30 RMK A01 T00390034  RH  096%=      5-min Rain = 0
KPD2 241208Z 11002KT 04/03 A30 RMK A01 T00390034  RH  096%=      5-min Rain = 0
KPD2 241209Z 11002KT 04/03 A30 RMK A01 T00390034  RH  096%=      5-min Rain = 0
KPD2 241210Z 13001KT 04/03 A30 RMK A01 T00390034  RH  096%=      5-min Rain = 0
KPD2 241211Z 13000KT 04/04 A30 RMK A01 T00400035  RH  097%=      5-min Rain = 0
KPD2 241212Z 00000KT 04/04 A30 RMK A01 T00410037  RH  097%=      5-min Rain = 0
KPD2 241213Z 00000KT 04/04 A30 RMK A01 T00410036  RH  097%=      5-min Rain = 0
KPD2 241214Z 02000KT 04/04 A30 RMK A01 T00410036  RH  096%=      5-min Rain = 0
KPD2 241215Z 02002KT 04/04 A30 RMK A01 T00410035  RH  096%=      5-min Rain = 0
KPD2 241216Z 35002KT 04/03 A30 RMK A01 T00400034  RH  096%=      5-min Rain = 0
KPD2 241217Z 34003KT 04/03 A30 RMK A01 T00400034  RH  096%=      5-min Rain = 0
KPD2 241218Z 34003KT 04/03 A30 RMK A01 T00380032  RH  096%=      5-min Rain = 0
KPD2 241219Z 34003KT 04/03 A30 RMK A01 T00380032  RH  096%=      5-min Rain = 0
KPD2 241220Z 34003KT 04/03 A30 RMK A01 T00370031  RH  096%=      5-min Rain = 0
KPD2 241221Z 33003KT 04/03 A30 RMK A01 T00370031  RH  096%=      5-min Rain = 0
KPD2 241222Z 31003KT 04/03 A30 RMK A01 T00370032  RH  096%=      5-min Rain = 0
KPD2 241223Z 30003KT 04/03 A30 RMK A01 T00370032  RH  096%=      5-min Rain = 0
KPD2 241224Z 29004KT 04/03 A30 RMK A01 T00370032  RH  096%=      5-min Rain = 0
KPD2 241225Z 30005KT 04/03 A30 RMK A01 T00380033  RH  096%=      5-min Rain = 0
KPD2 241226Z 30004KT 04/03 A30 RMK A01 T00390034  RH  097%=      5-min Rain = 0
KPD2 241227Z 29004KT 04/04 A30 RMK A01 T00400035  RH  097%=      5-min Rain = 0
KPD2 241228Z 29003KT 04/04 A30 RMK A01 T00400035  RH  097%=      5-min Rain = 0
KPD2 241229Z 29004KT 04/04 A3001 RMK A01 T00400036  RH  097%=      5-min Rain = 0
KPD2 241230Z 29003KT 04/04 A3001 RMK A01 T00410036  RH  097%=      5-min Rain = 0
KPD2 241231Z 30002KT 04/04 A3001 RMK A01 T00410036  RH  097%=      5-min Rain = 0
KPD2 241232Z 30002KT 04/04 A3001 RMK A01 T00410036  RH  096%=      5-min Rain = 0
KPD2 241233Z 30002KT 04/04 A3001 RMK A01 T00420036  RH  096%=      5-min Rain = 0
KPD2 241234Z 31001KT 04/04 A3001 RMK A01 T00410036  RH  096%=      5-min Rain = 0
KPD2 241235Z 33001KT 04/04 A3001 RMK A01 T00410036  RH  096%=      5-min Rain = 0
KPD2 241236Z 34001KT 04/04 A3001 RMK A01 T00400035  RH  096%=      5-min Rain = 0
KPD2 241237Z 01001KT 04/03 A3002 RMK A01 T00400034  RH  096%=      5-min Rain = 0
KPD2 241238Z 02002KT 04/03 A3002 RMK A01 T00390033  RH  096%=      5-min Rain = 0
KPD2 241239Z 01002KT 04/03 A3002 RMK A01 T00390033  RH  096%=      5-min Rain = 0
KPD2 241240Z 01002KT 04/03 A3002 RMK A01 T00390033  RH  096%=      5-min Rain = 0
KPD2 241241Z 01002KT 04/03 A3002 RMK A01 T00400034  RH  096%=      5-min Rain = 0
KPD2 241242Z 36002KT 04/03 A3002 RMK A01 T00390034  RH  096%=      5-min Rain = 0
KPD2 241243Z 36002KT 04/03 A3002 RMK A01 T00400034  RH  096%=      5-min Rain = 0
KPD2 241244Z 34002KT 04/03 A3002 RMK A01 T00390034  RH  096%=      5-min Rain = 0
KPD2 241245Z 32002KT 04/03 A3002 RMK A01 T00400034  RH  096%=      5-min Rain = 0
KPD2 241246Z 34002KT 04/03 A3002 RMK A01 T00400034  RH  096%=      5-min Rain = 0
KPD2 241247Z 34002KT 04/04 A3002 RMK A01 T00410035  RH  096%=      5-min Rain = 0
KPD2 241248Z 32003KT 04/04 A3002 RMK A01 T00410035  RH  096%=      5-min Rain = 0
KPD2 241249Z 33002KT 04/04 A3002 RMK A01 T00410036  RH  096%=      5-min Rain = 0
KPD2 241250Z 33002KT 04/04 A3002 RMK A01 T00410036  RH  096%=      5-min Rain = 0
KPD2 241251Z 34003KT 04/04 A3002 RMK A01 T00420036  RH  096%=      5-min Rain = 0
KPD2 241252Z 35003KT 04/04 A3002 RMK A01 T00420037  RH  096%=      5-min Rain = 0
KPD2 241253Z 35003KT 04/04 A3002 RMK A01 T00420037  RH  096%=      5-min Rain = 0
KPD2 241254Z 34002KT 04/04 A3002 RMK A01 T00420037  RH  096%=      5-min Rain = 0
KPD2 241255Z 34002KT 04/04 A3002 RMK A01 T00420037  RH  096%=      5-min Rain = 0
KPD2 241256Z 34002KT 04/04 A3002 RMK A01 T00430037  RH  096%=      5-min Rain = 0
KPD2 241257Z 34002KT 04/04 A3002 RMK A01 T00430037  RH  096%=      5-min Rain = 0
KPD2 241258Z 33002KT 04/04 A3002 RMK A01 T00430037  RH  096%=      5-min Rain = 0
KPD2 241259Z 35002KT 04/04 A3002 RMK A01 T00430038  RH  096%=      5-min Rain = 0
KPD2 241300Z 36002KT 04/04 A3002 RMK A01 T00430037  RH  096%=      5-min Rain = 0
KPD2 241301Z 35001KT 04/04 A3002 RMK A01 T00430037  RH  096%=      5-min Rain = 0
KPD2 241302Z 35001KT 04/04 A3002 RMK A01 T00430037  RH  096%=      5-min Rain = 0
KPD2 241303Z 35001KT 04/04 A3002 RMK A01 T00430037  RH  096%=      5-min Rain = 0
KPD2 241304Z 35000KT 04/04 A3002 RMK A01 T00440038  RH  096%=      5-min Rain = 0
KPD2 241305Z 34000KT 04/04 A3002 RMK A01 T00440038  RH  096%=      5-min Rain = 0
KPD2 241306Z 29001KT 05/04 A3002 RMK A01 T00450039  RH  096%=      5-min Rain = 0
KPD2 241307Z 26002KT 05/04 A3002 RMK A01 T00460040  RH  096%=      5-min Rain = 0
KPD2 241308Z 28001KT 05/04 A3002 RMK A01 T00470041  RH  096%=      5-min Rain = 0
KPD2 241309Z 29002KT 05/04 A3002 RMK A01 T00470042  RH  096%=      5-min Rain = 0
KPD2 241310Z 29002KT 05/04 A3002 RMK A01 T00480042  RH  096%=      5-min Rain = 0
KPD2 241311Z 31002KT 05/04 A3002 RMK A01 T00490043  RH  096%=      5-min Rain = 0
KPD2 241312Z 33004KT 05/04 A3002 RMK A01 T00500043  RH  096%=      5-min Rain = 0
KPD2 241313Z 33004KT 05/04 A3002 RMK A01 T00500043  RH  095%=      5-min Rain = 0
KPD2 241314Z 33003KT 05/04 A3002 RMK A01 T00510044  RH  095%=      5-min Rain = 0
KPD2 241315Z 33004KT 05/04 A3002 RMK A01 T00510044  RH  095%=      5-min Rain = 0
KPD2 241316Z 33003KT 05/04 A3002 RMK A01 T00510043  RH  095%=      5-min Rain = 0
KPD2 241317Z 32003KT 05/04 A3002 RMK A01 T00520044  RH  094%=      5-min Rain = 0
KPD2 241318Z 32003KT 05/04 A3002 RMK A01 T00530044  RH  094%=      5-min Rain = 0
KPD2 241319Z 33003KT 05/05 A3002 RMK A01 T00540045  RH  094%=      5-min Rain = 0
KPD2 241320Z 33004KT 06/05 A3002 RMK A01 T00550045  RH  094%=      5-min Rain = 0
KPD2 241321Z 31003KT 06/05 A3002 RMK A01 T00550046  RH  093%=      5-min Rain = 0
KPD2 241322Z 31003KT 06/05 A3002 RMK A01 T00580048  RH  093%=      5-min Rain = 0
KPD2 241323Z 32003KT 06/05 A3002 RMK A01 T00590049  RH  093%=      5-min Rain = 0
KPD2 241324Z 30002KT 06/05 A3002 RMK A01 T00610050  RH  093%=      5-min Rain = 0
KPD2 241325Z 35002KT 06/05 A3002 RMK A01 T00620051  RH  092%=      5-min Rain = 0
KPD2 241326Z 35003KT 06/05 A3002 RMK A01 T00640052  RH  092%=      5-min Rain = 0
KPD2 241327Z 35003KT 07/05 A3002 RMK A01 T00650054  RH  092%=      5-min Rain = 0
KPD2 241328Z 36003KT 07/06 A3002 RMK A01 T00660055  RH  092%=      5-min Rain = 0
KPD2 241329Z 00003KT 07/06 A3002 RMK A01 T00670055  RH  092%=      5-min Rain = 0
KPD2 241330Z 36003KT 07/05 A3002 RMK A01 T00680054  RH  091%=      5-min Rain = 0
KPD2 241331Z 36004KT 07/05 A3002 RMK A01 T00680054  RH  091%=      5-min Rain = 0
KPD2 241332Z 35004KT 07/05 A3002 RMK A01 T00690054  RH  090%=      5-min Rain = 0
KPD2 241333Z 35004KT 07/05 A3002 RMK A01 T00690053  RH  089%=      5-min Rain = 0
KPD2 241334Z 34004KT 07/05 A3002 RMK A01 T00690050  RH  088%=      5-min Rain = 0
KPD2 241335Z 34005KT 07/05 A3002 RMK A01 T00680049  RH  087%=      5-min Rain = 0
KPD2 241336Z 34004KT 07/05 A3002 RMK A01 T00680048  RH  087%=      5-min Rain = 0
KPD2 241337Z 33005KT 07/05 A3001 RMK A01 T00690049  RH  087%=      5-min Rain = 0
KPD2 241338Z 33007KT 07/05 A3001 RMK A01 T00690048  RH  086%=      5-min Rain = 0
KPD2 241339Z 34006KT 07/05 A3001 RMK A01 T00690046  RH  085%=      5-min Rain = 0
KPD2 241340Z 33005KT 07/05 A3001 RMK A01 T00700047  RH  085%=      5-min Rain = 0
KPD2 241341Z 33006KT 07/05 A3002 RMK A01 T00700046  RH  085%=      5-min Rain = 0
KPD2 241342Z 34005KT 07/04 A3002 RMK A01 T00710044  RH  083%=      5-min Rain = 0
KPD2 241343Z 32004KT 07/05 A3002 RMK A01 T00720046  RH  083%=      5-min Rain = 0
KPD2 241344Z 32005KT 07/05 A3002 RMK A01 T00730046  RH  083%=      5-min Rain = 0
KPD2 241345Z 32004KT 07/05 A3002 RMK A01 T00740046  RH  082%=      5-min Rain = 0
KPD2 241346Z 32005KT 08/05 A3002 RMK A01 T00760047  RH  082%=      5-min Rain = 0
KPD2 241347Z 33005KT 08/05 A3002 RMK A01 T00770047  RH  081%=      5-min Rain = 0
KPD2 241348Z 32004KT 08/05 A3002 RMK A01 T00790048  RH  081%=      5-min Rain = 0
KPD2 241349Z 33005KT 08/05 A3002 RMK A01 T00800048  RH  080%=      5-min Rain = 0
KPD2 241350Z 33006KT 08/05 A3002 RMK A01 T00800046  RH  079%=      5-min Rain = 0
KPD2 241351Z 33006KT 08/05 A3002 RMK A01 T00810046  RH  079%=      5-min Rain = 0
KPD2 241352Z 32006KT 08/05 A3002 RMK A01 T00810045  RH  078%=      5-min Rain = 0
KPD2 241353Z 33005KT 08/05 A3002 RMK A01 T00820045  RH  078%=      5-min Rain = 0
KPD2 241354Z 32005KT 08/05 A3002 RMK A01 T00830046  RH  078%=      5-min Rain = 0
KPD2 241355Z 32005KT 08/04 A3001 RMK A01 T00830044  RH  077%=      5-min Rain = 0
KPD2 241356Z 33004KT 08/05 A3001 RMK A01 T00830045  RH  077%=      5-min Rain = 0
KPD2 241357Z 34003KT 08/05 A3001 RMK A01 T00830045  RH  077%=      5-min Rain = 0
KPD2 241358Z 32004KT 09/05 A3002 RMK A01 T00850047  RH  077%=      5-min Rain = 0
KPD2 241359Z 29003KT 09/05 A3002 RMK A01 T00850046  RH  076%=      5-min Rain = 0
KPD2 241400Z 29004KT 09/05 A3002 RMK A01 T00860046  RH  076%=      5-min Rain = 0
KPD2 241401Z 31004KT 09/05 A3002 RMK A01 T00860045  RH  076%=      5-min Rain = 0
KPD2 241402Z 32003KT 09/05 A3002 RMK A01 T00860045  RH  075%=      5-min Rain = 0
KPD2 241403Z 34004KT 09/05 A3002 RMK A01 T00860045  RH  075%=      5-min Rain = 0
KPD2 241404Z 34004KT 09/05 A3002 RMK A01 T00870046  RH  076%=      5-min Rain = 0
KPD2 241405Z 33003KT 09/05 A3002 RMK A01 T00880046  RH  075%=      5-min Rain = 0
KPD2 241406Z 29003KT 09/05 A3002 RMK A01 T00880047  RH  075%=      5-min Rain = 0
KPD2 241407Z 31005KT 09/05 A3002 RMK A01 T00890048  RH  076%=      5-min Rain = 0
KPD2 241408Z 31004KT 09/05 A3001 RMK A01 T00900049  RH  075%=      5-min Rain = 0
KPD2 241409Z 29003KT 09/05 A3001 RMK A01 T00900046  RH  074%=      5-min Rain = 0
KPD2 241410Z 31003KT 09/05 A3001 RMK A01 T00900046  RH  074%=      5-min Rain = 0
KPD2 241411Z 30004KT 09/05 A3001 RMK A01 T00900046  RH  074%=      5-min Rain = 0
KPD2 241412Z 30002KT 09/05 A3001 RMK A01 T00900048  RH  075%=      5-min Rain = 0
KPD2 241413Z 33004KT 09/05 A3001 RMK A01 T00920051  RH  075%=      5-min Rain = 0
KPD2 241414Z 31005KT 09/05 A3001 RMK A01 T00940052  RH  075%=      5-min Rain = 0
KPD2 241415Z 32003KT 10/05 A3001 RMK A01 T00960052  RH  074%=      5-min Rain = 0
KPD2 241451Z 35001KT 12/06 A2999 RMK A01 T01170057  RH  066%=      5-min Rain = 0
KPD2 241452Z 34001KT 12/06 A2999 RMK A01 T01190059  RH  067%=      5-min Rain = 0
KPD2 241453Z 26002KT 12/06 A2999 RMK A01 T01210060  RH  066%=      5-min Rain = 0
KPD2 241454Z 24001KT 12/06 A2999 RMK A01 T01220062  RH  067%=      5-min Rain = 0
KPD2 241455Z 23001KT 12/06 A2999 RMK A01 T01230060  RH  065%=      5-min Rain = 0
KPD2 241456Z 28001KT 12/06 A2999 RMK A01 T01220059  RH  065%=      5-min Rain = 0
KPD2 241457Z 24001KT 12/06 A2999 RMK A01 T01230063  RH  067%=      5-min Rain = 0
KPD2 241458Z 25001KT 12/06 A2999 RMK A01 T01240060  RH  065%=      5-min Rain = 0
KPD2 241459Z 25003KT 12/06 A2999 RMK A01 T01240061  RH  066%=      5-min Rain = 0
KPD2 241500Z 25000KT 12/06 A2999 RMK A01 T01240059  RH  065%=      5-min Rain = 0
KPD2 241501Z 21000KT 13/06 A2999 RMK A01 T01250058  RH  064%=      5-min Rain = 0
KPD2 241502Z 20002KT 13/06 A2999 RMK A01 T01260061  RH  064%=      5-min Rain = 0
KPD2 241503Z 28003KT 13/07 A2999 RMK A01 T01290066  RH  065%=      5-min Rain = 0
KPD2 241504Z 33003KT 13/06 A2999 RMK A01 T01300064  RH  064%=      5-min Rain = 0
KPD2 241505Z 33003KT 13/06 A2999 RMK A01 T01300063  RH  063%=      5-min Rain = 0
KPD2 241506Z 34003KT 13/06 A2999 RMK A01 T01290060  RH  063%=      5-min Rain = 0
KPD2 241507Z 30002KT 13/06 A2999 RMK A01 T01300064  RH  064%=      5-min Rain = 0
KPD2 241508Z 28002KT 13/06 A2999 RMK A01 T01300059  RH  062%=      5-min Rain = 0
KPD2 241509Z 29004KT 13/06 A2999 RMK A01 T01290060  RH  063%=      5-min Rain = 0
KPD2 241510Z 31003KT 13/06 A2999 RMK A01 T01300062  RH  063%=      5-min Rain = 0
KPD2 241511Z 33004KT 13/06 A2998 RMK A01 T01310063  RH  063%=      5-min Rain = 0
KPD2 241512Z 34004KT 13/06 A2998 RMK A01 T01320063  RH  063%=      5-min Rain = 0
KPD2 241513Z 35005KT 13/07 A2998 RMK A01 T01330067  RH  064%=      5-min Rain = 0
KPD2 241514Z 33004KT 14/07 A2998 RMK A01 T01350066  RH  063%=      5-min Rain = 0
KPD2 241515Z 32006KT 14/07 A2998 RMK A01 T01350066  RH  063%=      5-min Rain = 0
KPD2 241516Z 29004KT 14/07 A2998 RMK A01 T01350065  RH  063%=      5-min Rain = 0
KPD2 241517Z 30005KT 14/07 A2998 RMK A01 T01360067  RH  063%=      5-min Rain = 0
KPD2 241518Z 31004KT 14/07 A2998 RMK A01 T01360065  RH  062%=      5-min Rain = 0
KPD2 241519Z 34004KT 14/07 A2998 RMK A01 T01370067  RH  063%=      5-min Rain = 0
KPD2 241520Z 33006KT 14/07 A2998 RMK A01 T01380067  RH  062%=      5-min Rain = 0
KPD2 241521Z 32005KT 14/07 A2998 RMK A01 T01390066  RH  062%=      5-min Rain = 0
KPD2 241522Z 33003KT 14/06 A2998 RMK A01 T01380064  RH  061%=      5-min Rain = 0
KPD2 241523Z 32002KT 14/07 A2998 RMK A01 T01380070  RH  063%=      5-min Rain = 0
KPD2 241524Z 29004KT 14/07 A2998 RMK A01 T01410067  RH  061%=      5-min Rain = 0
KPD2 241525Z 27005KT 14/07 A2998 RMK A01 T01410066  RH  061%=      5-min Rain = 0
KPD2 241526Z 25004KT 14/07 A2998 RMK A01 T01400065  RH  061%=      5-min Rain = 0
KPD2 241527Z 28003KT 14/07 A2998 RMK A01 T01400070  RH  062%=      5-min Rain = 0
KPD2 241528Z 29004KT 14/07 A2998 RMK A01 T01420069  RH  061%=      5-min Rain = 0
KPD2 241529Z 30004KT 14/07 A2998 RMK A01 T01430071  RH  062%=      5-min Rain = 0
KPD2 241530Z 31004KT 15/07 A2997 RMK A01 T01450068  RH  060%=      5-min Rain = 0
KPD2 241531Z 29003KT 14/07 A2997 RMK A01 T01440066  RH  060%=      5-min Rain = 0
KPD2 241532Z 31004KT 14/07 A2997 RMK A01 T01440067  RH  060%=      5-min Rain = 0
KPD2 241533Z 31003KT 14/07 A2997 RMK A01 T01440069  RH  061%=      5-min Rain = 0
KPD2 241534Z 32002KT 14/07 A2997 RMK A01 T01440070  RH  061%=      5-min Rain = 0
KPD2 241535Z 32004KT 15/07 A2997 RMK A01 T01460071  RH  060%=      5-min Rain = 0
KPD2 241536Z 36002KT 15/08 A2997 RMK A01 T01480075  RH  061%=      5-min Rain = 0
KPD2 241537Z 28003KT 15/07 A2997 RMK A01 T01500073  RH  060%=      5-min Rain = 0
KPD2 241538Z 27003KT 15/07 A2997 RMK A01 T01500074  RH  060%=      5-min Rain = 0
KPD2 241539Z 28002KT 15/08 A2997 RMK A01 T01520077  RH  061%=      5-min Rain = 0
KPD2 241540Z 32002KT 16/08 A2998 RMK A01 T01550078  RH  060%=      5-min Rain = 0
KPD2 241541Z 34003KT 16/07 A2998 RMK A01 T01560073  RH  058%=      5-min Rain = 0
KPD2 241542Z 34002KT 16/07 A2998 RMK A01 T01570073  RH  057%=      5-min Rain = 0
KPD2 241543Z 25002KT 16/07 A2998 RMK A01 T01570074  RH  058%=      5-min Rain = 0
KPD2 241544Z 28004KT 16/08 A2998 RMK A01 T01570076  RH  059%=      5-min Rain = 0
KPD2 241545Z 27004KT 16/07 A2998 RMK A01 T01580074  RH  057%=      5-min Rain = 0
KPD2 241546Z 30002KT 16/07 A2998 RMK A01 T01580073  RH  057%=      5-min Rain = 0
KPD2 241547Z 29002KT 16/07 A2998 RMK A01 T01580070  RH  056%=      5-min Rain = 0
KPD2 241548Z 28002KT 16/07 A2998 RMK A01 T01570072  RH  057%=      5-min Rain = 0
KPD2 241549Z 27005KT 16/07 A2998 RMK A01 T01570072  RH  057%=      5-min Rain = 0
KPD2 241550Z 27005KT 16/07 A2998 RMK A01 T01580072  RH  057%=      5-min Rain = 0
KPD2 241551Z 27003KT 16/07 A2997 RMK A01 T01580072  RH  056%=      5-min Rain = 0
KPD2 241552Z 27007KT 16/08 A2997 RMK A01 T01600075  RH  057%=      5-min Rain = 0
KPD2 241553Z 28005KT 16/08 A2997 RMK A01 T01630075  RH  056%=      5-min Rain = 0
KPD2 241554Z 31008KT 16/07 A2997 RMK A01 T01630074  RH  055%=      5-min Rain = 0
KPD2 241555Z 31006KT 16/07 A2997 RMK A01 T01640074  RH  055%=      5-min Rain = 0
KPD2 241556Z 32004KT 17/08 A2997 RMK A01 T01650076  RH  056%=      5-min Rain = 0
KPD2 241557Z 32003KT 17/08 A2997 RMK A01 T01660077  RH  055%=      5-min Rain = 0
KPD2 241558Z 29006KT 17/07 A2997 RMK A01 T01680073  RH  054%=      5-min Rain = 0
KPD2 241559Z 29003KT 17/07 A2998 RMK A01 T01670071  RH  053%=      5-min Rain = 0
KPD2 241600Z 29004KT 17/07 A2998 RMK A01 T01670072  RH  053%=      5-min Rain = 0
KPD2 241601Z 31004KT 17/07 A2998 RMK A01 T01660070  RH  053%=      5-min Rain = 0
KPD2 241602Z 32005KT 17/07 A2998 RMK A01 T01670074  RH  054%=      5-min Rain = 0
KPD2 241603Z 28003KT 17/07 A2998 RMK A01 T01680069  RH  052%=      5-min Rain = 0
KPD2 241604Z 31002KT 17/07 A2998 RMK A01 T01670070  RH  053%=      5-min Rain = 0
KPD2 241605Z 30005KT 17/07 A2998 RMK A01 T01680074  RH  054%=      5-min Rain = 0
KPD2 241606Z 30004KT 17/07 A2998 RMK A01 T01700073  RH  053%=      5-min Rain = 0
KPD2 241607Z 28003KT 17/07 A2998 RMK A01 T01690070  RH  052%=      5-min Rain = 0
KPD2 241608Z 26004KT 17/07 A2998 RMK A01 T01680070  RH  053%=      5-min Rain = 0
KPD2 241609Z 24002KT 17/07 A2998 RMK A01 T01680071  RH  053%=      5-min Rain = 0
KPD2 241610Z 32003KT 17/07 A2998 RMK A01 T01680071  RH  053%=      5-min Rain = 0
KPD2 241611Z 31002KT 17/08 A2998 RMK A01 T01690075  RH  054%=      5-min Rain = 0
KPD2 241612Z 26004KT 17/07 A2998 RMK A01 T01700070  RH  052%=      5-min Rain = 0
KPD2 241613Z 25004KT 17/07 A2998 RMK A01 T01690070  RH  052%=      5-min Rain = 0
KPD2 241614Z 29006KT 17/07 A2998 RMK A01 T01690073  RH  053%=      5-min Rain = 0
KPD2 241615Z 29004KT 17/07 A2998 RMK A01 T01700068  RH  051%=      5-min Rain = 0
KPD2 241616Z 25003KT 17/07 A2998 RMK A01 T01690067  RH  051%=      5-min Rain = 0
KPD2 241617Z 26003KT 17/07 A2998 RMK A01 T01680067  RH  051%=      5-min Rain = 0
KPD2 241618Z 27005KT 17/07 A2998 RMK A01 T01680071  RH  053%=      5-min Rain = 0
KPD2 241619Z 27005KT 17/07 A2998 RMK A01 T01690071  RH  052%=      5-min Rain = 0
KPD2 241620Z 27006KT 17/07 A2998 RMK A01 T01700071  RH  052%=      5-min Rain = 0
KPD2 241621Z 29005KT 17/08 A2998 RMK A01 T01720076  RH  053%=      5-min Rain = 0
KPD2 241622Z 30004KT 17/07 A2998 RMK A01 T01730072  RH  051%=      5-min Rain = 0
KPD2 241623Z 31002KT 17/07 A2998 RMK A01 T01730072  RH  052%=      5-min Rain = 0
KPD2 241624Z 29002KT 17/07 A2998 RMK A01 T01730069  RH  050%=      5-min Rain = 0
KPD2 241625Z 28003KT 17/07 A2998 RMK A01 T01740073  RH  052%=      5-min Rain = 0
KPD2 241626Z 27004KT 17/07 A2998 RMK A01 T01740072  RH  051%=      5-min Rain = 0
KPD2 241627Z 29002KT 17/07 A2998 RMK A01 T01730067  RH  050%=      5-min Rain = 0
KPD2 241628Z 26005KT 17/07 A2999 RMK A01 T01720073  RH  052%=      5-min Rain = 0
KPD2 241629Z 26006KT 18/08 A2999 RMK A01 T01750078  RH  053%=      5-min Rain = 0
KPD2 241630Z 26003KT 18/08 A2999 RMK A01 T01770080  RH  053%=      5-min Rain = 0
KPD2 241631Z 24003KT 18/08 A2999 RMK A01 T01800077  RH  051%=      5-min Rain = 0
KPD2 241632Z 24002KT 18/07 A2999 RMK A01 T01790071  RH  049%=      5-min Rain = 0
KPD2 241633Z 26002KT 18/07 A2999 RMK A01 T01760070  RH  050%=      5-min Rain = 0
KPD2 241634Z 25003KT 18/07 A2999 RMK A01 T01750073  RH  051%=      5-min Rain = 0
KPD2 241635Z 29003KT 18/08 A2999 RMK A01 T01770078  RH  052%=      5-min Rain = 0
KPD2 241636Z 29002KT 18/07 A2999 RMK A01 T01790071  RH  049%=      5-min Rain = 0
KPD2 241637Z 28002KT 18/07 A2999 RMK A01 T01780074  RH  050%=      5-min Rain = 0
KPD2 241638Z 29004KT 18/07 A2999 RMK A01 T01780071  RH  049%=      5-min Rain = 0
KPD2 241639Z 30006KT 18/07 A2999 RMK A01 T01780073  RH  050%=      5-min Rain = 0
KPD2 241640Z 27003KT 18/08 A2999 RMK A01 T01790076  RH  051%=      5-min Rain = 0
KPD2 241641Z 27006KT 18/08 A2999 RMK A01 T01810078  RH  051%=      5-min Rain = 0
KPD2 241642Z 27005KT 18/08 A2999 RMK A01 T01820076  RH  050%=      5-min Rain = 0
KPD2 241643Z 28005KT 18/07 A2999 RMK A01 T01810073  RH  049%=      5-min Rain = 0
KPD2 241644Z 30007KT 18/08 A2999 RMK A01 T01820079  RH  051%=      5-min Rain = 0
KPD2 241645Z 29005KT 18/07 A2999 RMK A01 T01830073  RH  049%=      5-min Rain = 0
KPD2 241646Z 30003KT 18/08 A2999 RMK A01 T01820075  RH  050%=      5-min Rain = 0
KPD2 241647Z 25003KT 18/07 A2999 RMK A01 T01810070  RH  048%=      5-min Rain = 0
KPD2 241648Z 34002KT 18/08 A2999 RMK A01 T01790075  RH  050%=      5-min Rain = 0
KPD2 241649Z 30002KT 18/07 A2999 RMK A01 T01800073  RH  049%=      5-min Rain = 0
KPD2 241650Z 27004KT 18/07 A2999 RMK A01 T01790071  RH  049%=      5-min Rain = 0
KPD2 241651Z 21001KT 18/07 A2999 RMK A01 T01790073  RH  050%=      5-min Rain = 0
KPD2 241652Z 25003KT 18/07 A2999 RMK A01 T01800074  RH  050%=      5-min Rain = 0
KPD2 241653Z 21005KT 18/08 A2999 RMK A01 T01810077  RH  051%=      5-min Rain = 0
KPD2 241654Z 21003KT 18/08 A2999 RMK A01 T01810075  RH  050%=      5-min Rain = 0
KPD2 241655Z 26004KT 18/08 A2999 RMK A01 T01820079  RH  051%=      5-min Rain = 0
KPD2 241656Z 30007KT 19/08 A2999 RMK A01 T01860084  RH  051%=      5-min Rain = 0
KPD2 241657Z 30008KT 19/08 A2999 RMK A01 T01890081  RH  049%=      5-min Rain = 0
KPD2 241658Z 30006KT 19/08 A2999 RMK A01 T01880076  RH  048%=      5-min Rain = 0
KPD2 241659Z 27005KT 19/07 A2999 RMK A01 T01860072  RH  048%=      5-min Rain = 0
KPD2 241700Z 27003KT 18/07 A2999 RMK A01 T01840072  RH  048%=      5-min Rain = 0
KPD2 241701Z 34002KT 18/07 A2999 RMK A01 T01810070  RH  048%=      5-min Rain = 0
KPD2 241702Z 32002KT 18/08 A2999 RMK A01 T01800077  RH  051%=      5-min Rain = 0
KPD2 241703Z 23000KT 18/07 A2999 RMK A01 T01820073  RH  049%=      5-min Rain = 0
KPD2 241704Z 26003KT 19/08 A2999 RMK A01 T01850076  RH  049%=      5-min Rain = 0
KPD2 241705Z 26004KT 19/07 A2998 RMK A01 T01870074  RH  048%=      5-min Rain = 0
KPD2 241706Z 29006KT 19/08 A2998 RMK A01 T01860075  RH  048%=      5-min Rain = 0
KPD2 241707Z 29007KT 19/07 A2998 RMK A01 T01860074  RH  048%=      5-min Rain = 0
KPD2 241708Z 28002KT 19/08 A2998 RMK A01 T01860075  RH  048%=      5-min Rain = 0
KPD2 241709Z 29002KT 19/07 A2998 RMK A01 T01850069  RH  047%=      5-min Rain = 0
KPD2 241710Z 00004KT 18/07 A2998 RMK A01 T01830069  RH  047%=      5-min Rain = 0
KPD2 241711Z 02005KT 18/07 A2998 RMK A01 T01810070  RH  048%=      5-min Rain = 0
KPD2 241712Z 05002KT 18/07 A2998 RMK A01 T01800071  RH  049%=      5-min Rain = 0
KPD2 241713Z 10003KT 18/08 A2998 RMK A01 T01800075  RH  051%=      5-min Rain = 0
KPD2 241714Z 11003KT 18/08 A2998 RMK A01 T01810079  RH  051%=      5-min Rain = 0
KPD2 241715Z 12001KT 18/07 A2998 RMK A01 T01820072  RH  049%=      5-min Rain = 0
KPD2 241716Z 11003KT 18/08 A2998 RMK A01 T01830075  RH  049%=      5-min Rain = 0
KPD2 241717Z 15005KT 19/08 A2998 RMK A01 T01850080  RH  050%=      5-min Rain = 0
KPD2 241718Z 15005KT 19/08 A2998 RMK A01 T01880076  RH  048%=      5-min Rain = 0
KPD2 241719Z 13002KT 19/07 A2998 RMK A01 T01880073  RH  047%=      5-min Rain = 0
KPD2 241720Z 22001KT 19/08 A2998 RMK A01 T01860075  RH  048%=      5-min Rain = 0
KPD2 241721Z 27002KT 19/08 A2998 RMK A01 T01870078  RH  049%=      5-min Rain = 0
KPD2 241722Z 24004KT 19/08 A2998 RMK A01 T01870077  RH  049%=      5-min Rain = 0
KPD2 241723Z 26004KT 19/08 A2998 RMK A01 T01880078  RH  049%=      5-min Rain = 0
KPD2 241724Z 29004KT 19/07 A2998 RMK A01 T01890074  RH  047%=      5-min Rain = 0
KPD2 241725Z 28001KT 19/08 A2997 RMK A01 T01870075  RH  048%=      5-min Rain = 0
KPD2 241726Z 21002KT 19/08 A2997 RMK A01 T01870078  RH  049%=      5-min Rain = 0
KPD2 241727Z 26005KT 19/08 A2997 RMK A01 T01880080  RH  049%=      5-min Rain = 0
KPD2 241728Z 25004KT 19/08 A2997 RMK A01 T01900083  RH  050%=      5-min Rain = 0
KPD2 241729Z 26002KT 19/08 A2997 RMK A01 T01930083  RH  049%=      5-min Rain = 0
KPD2 241730Z 29000KT 20/09 A2997 RMK A01 T01960092  RH  051%=      5-min Rain = 0
KPD2 241731Z 30003KT 20/09 A2997 RMK A01 T01980086  RH  048%=      5-min Rain = 0
KPD2 241732Z 28006KT 20/09 A2997 RMK A01 T01990085  RH  048%=      5-min Rain = 0
KPD2 241733Z 28007KT 20/08 A2997 RMK A01 T01990081  RH  047%=      5-min Rain = 0
KPD2 241734Z 29006KT 20/08 A2997 RMK A01 T01960078  RH  047%=      5-min Rain = 0
KPD2 241735Z 29004KT 19/08 A2997 RMK A01 T01940080  RH  047%=      5-min Rain = 0
KPD2 241736Z 31006KT 19/08 A2997 RMK A01 T01930078  RH  047%=      5-min Rain = 0
KPD2 241737Z 30005KT 19/08 A2996 RMK A01 T01920081  RH  048%=      5-min Rain = 0
KPD2 241738Z 28006KT 19/08 A2996 RMK A01 T01940081  RH  048%=      5-min Rain = 0
KPD2 241739Z 28005KT 20/08 A2996 RMK A01 T01950080  RH  047%=      5-min Rain = 0
KPD2 241740Z 30005KT 20/08 A2996 RMK A01 T01950077  RH  047%=      5-min Rain = 0
KPD2 241741Z 26006KT 19/08 A2996 RMK A01 T01920075  RH  047%=      5-min Rain = 0
KPD2 241742Z 21002KT 19/08 A2996 RMK A01 T01910075  RH  047%=      5-min Rain = 0
KPD2 241743Z 23001KT 19/07 A2996 RMK A01 T01900071  RH  046%=      5-min Rain = 0
KPD2 241744Z 25005KT 19/08 A2996 RMK A01 T01890079  RH  049%=      5-min Rain = 0
KPD2 241745Z 25004KT 19/08 A2996 RMK A01 T01900080  RH  049%=      5-min Rain = 0
KPD2 241746Z 26003KT 19/08 A2996 RMK A01 T01930079  RH  047%=      5-min Rain = 0
KPD2 241747Z 25005KT 20/08 A2996 RMK A01 T01950081  RH  048%=      5-min Rain = 0
KPD2 241748Z 28005KT 20/08 A2996 RMK A01 T01960077  RH  046%=      5-min Rain = 0
KPD2 241749Z 29002KT 19/07 A2996 RMK A01 T01940071  RH  045%=      5-min Rain = 0
KPD2 241750Z 29003KT 19/07 A2996 RMK A01 T01910070  RH  045%=      5-min Rain = 0
KPD2 241751Z 30005KT 19/07 A2996 RMK A01 T01900072  RH  046%=      5-min Rain = 0
KPD2 241752Z 27004KT 19/08 A2996 RMK A01 T01900077  RH  048%=      5-min Rain = 0
KPD2 241753Z 26003KT 19/07 A2996 RMK A01 T01920073  RH  046%=      5-min Rain = 0
KPD2 241754Z 26003KT 19/07 A2996 RMK A01 T01920070  RH  045%=      5-min Rain = 0
KPD2 241755Z 32003KT 19/08 A2995 RMK A01 T01910075  RH  047%=      5-min Rain = 0
KPD2 241756Z 01003KT 19/07 A2995 RMK A01 T01910073  RH  046%=      5-min Rain = 0
KPD2 241757Z 06002KT 19/07 A2995 RMK A01 T01920071  RH  045%=      5-min Rain = 0
KPD2 241758Z 22001KT 19/07 A2995 RMK A01 T01920073  RH  046%=      5-min Rain = 0
KPD2 241759Z 21002KT 19/07 A2995 RMK A01 T01920074  RH  046%=      5-min Rain = 0
KPD2 241800Z 24001KT 19/08 A2995 RMK A01 T01920075  RH  046%=      5-min Rain = 0
KPD2 241801Z 29002KT 19/08 A2995 RMK A01 T01940078  RH  047%=      5-min Rain = 0
KPD2 241802Z 32006KT 20/07 A2995 RMK A01 T01960074  RH  045%=      5-min Rain = 0
KPD2 241803Z 33004KT 19/07 A2995 RMK A01 T01940073  RH  045%=      5-min Rain = 0
KPD2 241804Z 35003KT 20/08 A2995 RMK A01 T01950083  RH  048%=      5-min Rain = 0
KPD2 241805Z 36002KT 20/07 A2995 RMK A01 T01970074  RH  045%=      5-min Rain = 0
KPD2 241806Z 06001KT 20/07 A2995 RMK A01 T01970070  RH  044%=      5-min Rain = 0
KPD2 241807Z 09002KT 20/07 A2995 RMK A01 T01960069  RH  044%=      5-min Rain = 0
KPD2 241808Z 01003G8KT 20/07 A2995 RMK A01 T01950073  RH  045%=      5-min Rain = 0
KPD2 241809Z 35004KT 20/08 A2995 RMK A01 T01960084  RH  048%=      5-min Rain = 0
KPD2 241810Z 33002KT 20/08 A2995 RMK A01 T02010081  RH  046%=      5-min Rain = 0
KPD2 241811Z 14001KT 20/08 A2995 RMK A01 T02030081  RH  045%=      5-min Rain = 0
KPD2 241812Z 26002KT 20/08 A2994 RMK A01 T02040080  RH  045%=      5-min Rain = 0
KPD2 241813Z 26003KT 20/08 A2994 RMK A01 T02040083  RH  046%=      5-min Rain = 0
KPD2 241814Z 28005KT 21/08 A2994 RMK A01 T02050084  RH  046%=      5-min Rain = 0
KPD2 241815Z 29007KT 21/08 A2994 RMK A01 T02070083  RH  045%=      5-min Rain = 0
KPD2 241816Z 29006KT 21/08 A2994 RMK A01 T02060078  RH  043%=      5-min Rain = 0
KPD2 241817Z 32007KT 20/08 A2994 RMK A01 T02040081  RH  045%=      5-min Rain = 0
KPD2 241818Z 32005KT 21/08 A2994 RMK A01 T02060084  RH  045%=      5-min Rain = 0
KPD2 241819Z 30005KT 21/08 A2994 RMK A01 T02060082  RH  045%=      5-min Rain = 0
KPD2 241820Z 28005KT 21/08 A2994 RMK A01 T02060081  RH  044%=      5-min Rain = 0
KPD2 241821Z 32006KT 21/08 A2994 RMK A01 T02050079  RH  044%=      5-min Rain = 0
KPD2 241822Z 33006KT 21/08 A2994 RMK A01 T02050080  RH  044%=      5-min Rain = 0
KPD2 241823Z 33006KT 21/09 A2994 RMK A01 T02070086  RH  046%=      5-min Rain = 0
KPD2 241824Z 32004KT 21/08 A2994 RMK A01 T02100083  RH  044%=      5-min Rain = 0
KPD2 241825Z 02003KT 21/07 A2994 RMK A01 T02090073  RH  041%=      5-min Rain = 0
KPD2 241826Z 01002KT 21/08 A2994 RMK A01 T02070075  RH  043%=      5-min Rain = 0
KPD2 241827Z 35004KT 21/08 A2994 RMK A01 T02060077  RH  043%=      5-min Rain = 0
KPD2 241828Z 33006KT 21/08 A2994 RMK A01 T02070076  RH  043%=      5-min Rain = 0
KPD2 241829Z 32004KT 21/08 A2994 RMK A01 T02060076  RH  043%=      5-min Rain = 0
KPD2 241830Z 29005KT 21/08 A2994 RMK A01 T02060075  RH  043%=      5-min Rain = 0
KPD2 241831Z 31004KT 20/07 A2994 RMK A01 T02030068  RH  042%=      5-min Rain = 0
KPD2 241832Z 33002KT 20/07 A2994 RMK A01 T01980066  RH  042%=      5-min Rain = 0
KPD2 241833Z 03001KT 20/07 A2994 RMK A01 T01960071  RH  044%=      5-min Rain = 0
KPD2 241834Z 03004KT 20/07 A2994 RMK A01 T01970074  RH  045%=      5-min Rain = 0
KPD2 241835Z 01004KT 20/08 A2994 RMK A01 T01990077  RH  045%=      5-min Rain = 0
KPD2 241836Z 01004KT 20/08 A2994 RMK A01 T02020082  RH  046%=      5-min Rain = 0
KPD2 241837Z 01003KT 21/08 A2994 RMK A01 T02050081  RH  045%=      5-min Rain = 0
KPD2 241838Z 01003KT 21/08 A2994 RMK A01 T02080078  RH  043%=      5-min Rain = 0
KPD2 241839Z 03005KT 21/08 A2994 RMK A01 T02080077  RH  043%=      5-min Rain = 0
KPD2 241840Z 05004KT 21/08 A2994 RMK A01 T02080076  RH  043%=      5-min Rain = 0
KPD2 241841Z 10003KT 21/08 A2994 RMK A01 T02070077  RH  043%=      5-min Rain = 0
KPD2 241842Z 09003KT 21/08 A2994 RMK A01 T02080081  RH  044%=      5-min Rain = 0
KPD2 241843Z 06004KT 21/08 A2994 RMK A01 T02090079  RH  043%=      5-min Rain = 0
KPD2 241844Z 08004KT 21/08 A2994 RMK A01 T02090081  RH  044%=      5-min Rain = 0
KPD2 241845Z 09005KT 21/08 A2994 RMK A01 T02100084  RH  044%=      5-min Rain = 0
KPD2 241846Z 09004KT 21/08 A2994 RMK A01 T02110083  RH  044%=      5-min Rain = 0
KPD2 241847Z 08003KT 21/08 A2994 RMK A01 T02120078  RH  042%=      5-min Rain = 0
KPD2 241848Z 04002KT 21/08 A2994 RMK A01 T02120080  RH  042%=      5-min Rain = 0
KPD2 241849Z 04001KT 21/08 A2994 RMK A01 T02120083  RH  043%=      5-min Rain = 0
KPD2 241850Z 31001KT 21/08 A2994 RMK A01 T02140078  RH  042%=      5-min Rain = 0
KPD2 241851Z 27002KT 21/08 A2994 RMK A01 T02120075  RH  041%=      5-min Rain = 0
KPD2 241852Z 24003KT 21/07 A2994 RMK A01 T02100074  RH  042%=      5-min Rain = 0
KPD2 241853Z 25002KT 21/07 A2994 RMK A01 T02070070  RH  041%=      5-min Rain = 0
KPD2 241854Z 27002KT 21/07 A2994 RMK A01 T02050073  RH  042%=      5-min Rain = 0
KPD2 241855Z 27005KT 21/08 A2994 RMK A01 T02050078  RH  044%=      5-min Rain = 0
KPD2 241856Z 27003KT 21/08 A2994 RMK A01 T02070077  RH  043%=      5-min Rain = 0
KPD2 241857Z 30005KT 21/08 A2994 RMK A01 T02070079  RH  044%=      5-min Rain = 0
KPD2 241858Z 29005KT 21/08 A2994 RMK A01 T02090082  RH  044%=      5-min Rain = 0
KPD2 241859Z 28007KT 21/08 A2994 RMK A01 T02090075  RH  042%=      5-min Rain = 0
KPD2 241900Z 28006KT 21/08 A2994 RMK A01 T02070075  RH  042%=      5-min Rain = 0
KPD2 241901Z 29004KT 21/07 A2994 RMK A01 T02050074  RH  043%=      5-min Rain = 0
KPD2 241902Z 26004KT 21/07 A2994 RMK A01 T02050074  RH  043%=      5-min Rain = 0
KPD2 241903Z 22002KT 21/07 A2993 RMK A01 T02050074  RH  043%=      5-min Rain = 0
KPD2 241904Z 27002KT 21/08 A2993 RMK A01 T02060083  RH  045%=      5-min Rain = 0
KPD2 241905Z 25003KT 21/07 A2993 RMK A01 T02080074  RH  042%=      5-min Rain = 0
KPD2 241906Z 21001KT 21/07 A2993 RMK A01 T02080071  RH  041%=      5-min Rain = 0
KPD2 241907Z 27002KT 21/07 A2993 RMK A01 T02080072  RH  041%=      5-min Rain = 0
KPD2 241908Z 22003KT 21/07 A2993 RMK A01 T02080072  RH  042%=      5-min Rain = 0
KPD2 241909Z 19001KT 21/07 A2993 RMK A01 T02070070  RH  041%=      5-min Rain = 0
KPD2 241910Z 21001KT 21/07 A2993 RMK A01 T02060072  RH  042%=      5-min Rain = 0
KPD2 241911Z 29003KT 21/08 A2993 RMK A01 T02060076  RH  043%=      5-min Rain = 0
KPD2 241912Z 31002KT 21/08 A2993 RMK A01 T02090079  RH  043%=      5-min Rain = 0
KPD2 241913Z 00000KT 21/08 A2993 RMK A01 T02120079  RH  042%=      5-min Rain = 0
KPD2 241914Z 32004KT 21/08 A2993 RMK A01 T02130080  RH  042%=      5-min Rain = 0
KPD2 241915Z 32006KT 21/08 A2993 RMK A01 T02140083  RH  043%=      5-min Rain = 0
KPD2 241916Z 32006KT 22/08 A2993 RMK A01 T02150081  RH  042%=      5-min Rain = 0
KPD2 241917Z 33008KT 22/09 A2992 RMK A01 T02160085  RH  043%=      5-min Rain = 0
KPD2 241918Z 34005KT 22/08 A2992 RMK A01 T02160077  RH  041%=      5-min Rain = 0
KPD2 241919Z 30005KT 21/08 A2992 RMK A01 T02140083  RH  043%=      5-min Rain = 0
KPD2 241920Z 33006KT 22/08 A2992 RMK A01 T02150081  RH  042%=      5-min Rain = 0
KPD2 241921Z 30006KT 22/08 A2992 RMK A01 T02150079  RH  041%=      5-min Rain = 0
KPD2 241922Z 30002KT 21/08 A2992 RMK A01 T02140082  RH  043%=      5-min Rain = 0
KPD2 241923Z 30003KT 22/08 A2992 RMK A01 T02150081  RH  042%=      5-min Rain = 0
KPD2 241924Z 25001KT 22/08 A2992 RMK A01 T02160080  RH  042%=      5-min Rain = 0
KPD2 241925Z 21002KT 22/08 A2992 RMK A01 T02170080  RH  041%=      5-min Rain = 0
KPD2 241926Z 20002KT 22/08 A2992 RMK A01 T02150077  RH  041%=      5-min Rain = 0
KPD2 241927Z 05001KT 21/08 A2992 RMK A01 T02130082  RH  043%=      5-min Rain = 0
KPD2 241928Z 01004KT 21/08 A2992 RMK A01 T02140081  RH  042%=      5-min Rain = 0
KPD2 241929Z 02003KT 22/08 A2992 RMK A01 T02160076  RH  040%=      5-min Rain = 0
KPD2 241930Z 01001KT 22/08 A2992 RMK A01 T02150078  RH  041%=      5-min Rain = 0
KPD2 241931Z 33001KT 21/08 A2992 RMK A01 T02140075  RH  041%=      5-min Rain = 0
KPD2 241932Z 03001KT 21/08 A2992 RMK A01 T02120076  RH  041%=      5-min Rain = 0
KPD2 241933Z 12000KT 21/08 A2992 RMK A01 T02120079  RH  042%=      5-min Rain = 0
KPD2 241934Z 13001KT 21/08 A2991 RMK A01 T02130080  RH  042%=      5-min Rain = 0
KPD2 241935Z 15001KT 22/09 A2991 RMK A01 T02170087  RH  043%=      5-min Rain = 0
KPD2 241936Z 23002KT 22/08 A2991 RMK A01 T02200082  RH  041%=      5-min Rain = 0
KPD2 241937Z 30004KT 22/08 A2991 RMK A01 T02200081  RH  041%=      5-min Rain = 0
KPD2 241938Z 32005KT 22/08 A2991 RMK A01 T02220084  RH  041%=      5-min Rain = 0
KPD2 241939Z 35005KT 22/08 A2991 RMK A01 T02230078  RH  039%=      5-min Rain = 0
KPD2 241940Z 35006KT 22/09 A2991 RMK A01 T02240087  RH  042%=      5-min Rain = 0
KPD2 241941Z 36006KT 23/09 A2991 RMK A01 T02270085  RH  040%=      5-min Rain = 0
KPD2 241942Z 01005KT 23/08 A2991 RMK A01 T02280084  RH  040%=      5-min Rain = 0
KPD2 241943Z 02004KT 23/08 A2991 RMK A01 T02290081  RH  039%=      5-min Rain = 0
KPD2 241944Z 03002KT 23/08 A2991 RMK A01 T02260076  RH  038%=      5-min Rain = 0
KPD2 241945Z 32004KT 22/08 A2991 RMK A01 T02240081  RH  040%=      5-min Rain = 0
KPD2 241946Z 33005KT 22/08 A2991 RMK A01 T02230078  RH  039%=      5-min Rain = 0
KPD2 241947Z 33004KT 22/08 A2991 RMK A01 T02210082  RH  041%=      5-min Rain = 0
KPD2 241948Z 34004KT 22/08 A2991 RMK A01 T02210079  RH  040%=      5-min Rain = 0
KPD2 241949Z 28007KT 22/09 A2991 RMK A01 T02220085  RH  041%=      5-min Rain = 0
KPD2 241950Z 30004KT 22/09 A2991 RMK A01 T02240089  RH  042%=      5-min Rain = 0
KPD2 241951Z 32008KT 23/08 A2991 RMK A01 T02280083  RH  040%=      5-min Rain = 0
KPD2 241952Z 33007KT 23/08 A2991 RMK A01 T02250078  RH  039%=      5-min Rain = 0
KPD2 241953Z 35004KT 22/09 A2991 RMK A01 T02230085  RH  041%=      5-min Rain = 0
KPD2 241954Z 36003KT 23/09 A2991 RMK A01 T02270085  RH  040%=      5-min Rain = 0
KPD2 241955Z 23002KT 23/08 A2991 RMK A01 T02290082  RH  039%=      5-min Rain = 0
KPD2 241956Z 33002KT 23/08 A299 RMK A01 T02300081  RH  039%=      5-min Rain = 0
KPD2 241957Z 34003KT 23/08 A299 RMK A01 T02290082  RH  039%=      5-min Rain = 0
KPD2 241958Z 31003KT 23/08 A299 RMK A01 T02300082  RH  039%=      5-min Rain = 0
KPD2 241959Z 27005KT 23/08 A299 RMK A01 T02310081  RH  038%=      5-min Rain = 0
KPD2 242000Z 27005KT 23/08 A299 RMK A01 T02280077  RH  038%=      5-min Rain = 0
KPD2 242001Z 28004KT 22/08 A299 RMK A01 T02230075  RH  039%=      5-min Rain = 0
KPD2 242002Z 23002KT 22/08 A299 RMK A01 T02210080  RH  040%=      5-min Rain = 0
KPD2 242003Z 21006KT 22/08 A299 RMK A01 T02220081  RH  041%=      5-min Rain = 0
KPD2 242004Z 22003KT 22/08 A299 RMK A01 T02210077  RH  039%=      5-min Rain = 0
KPD2 242005Z 23004KT 22/08 A299 RMK A01 T02190078  RH  040%=      5-min Rain = 0
KPD2 242006Z 24006KT 22/08 A299 RMK A01 T02190080  RH  041%=      5-min Rain = 0
KPD2 242007Z 26004KT 22/08 A299 RMK A01 T02190079  RH  040%=      5-min Rain = 0
KPD2 242008Z 29002KT 22/08 A299 RMK A01 T02200075  RH  039%=      5-min Rain = 0
KPD2 242009Z 33002KT 22/07 A299 RMK A01 T02200074  RH  039%=      5-min Rain = 0
KPD2 242010Z 31003KT 22/08 A299 RMK A01 T02200080  RH  041%=      5-min Rain = 0
KPD2 242011Z 34005KT 22/08 A299 RMK A01 T02220078  RH  040%=      5-min Rain = 0
KPD2 242012Z 34004G9KT 22/08 A299 RMK A01 T02210080  RH  040%=      5-min Rain = 0
KPD2 242013Z 32007KT 22/08 A299 RMK A01 T02230081  RH  040%=      5-min Rain = 0
KPD2 242014Z 36006KT 22/08 A2989 RMK A01 T02230084  RH  041%=      5-min Rain = 0
KPD2 242015Z 34006KT 23/09 A2989 RMK A01 T02260087  RH  041%=      5-min Rain = 0
KPD2 242016Z 31006KT 23/08 A2989 RMK A01 T02270084  RH  040%=      5-min Rain = 0
KPD2 242017Z 34005KT 23/08 A2989 RMK A01 T02280084  RH  039%=      5-min Rain = 0
KPD2 242018Z 33007KT 23/09 A2989 RMK A01 T02300085  RH  039%=      5-min Rain = 0
KPD2 242019Z 35006KT 23/08 A2989 RMK A01 T02330084  RH  039%=      5-min Rain = 0
KPD2 242020Z 01004KT 23/08 A2989 RMK A01 T02340081  RH  037%=      5-min Rain = 0
KPD2 242021Z 34005KT 23/07 A2989 RMK A01 T02320074  RH  036%=      5-min Rain = 0
KPD2 242022Z 31004KT 23/07 A2989 RMK A01 T02290073  RH  037%=      5-min Rain = 0
KPD2 242023Z 33004KT 23/08 A2989 RMK A01 T02280077  RH  038%=      5-min Rain = 0
KPD2 242024Z 35005KT 23/08 A2989 RMK A01 T02290081  RH  039%=      5-min Rain = 0
KPD2 242025Z 34005KT 23/08 A2989 RMK A01 T02310076  RH  037%=      5-min Rain = 0
KPD2 242026Z 34003KT 23/07 A2989 RMK A01 T02300073  RH  036%=      5-min Rain = 0
KPD2 242027Z 16000KT 23/07 A2989 RMK A01 T02280070  RH  036%=      5-min Rain = 0
KPD2 242028Z 15001KT 23/07 A2989 RMK A01 T02260071  RH  037%=      5-min Rain = 0
KPD2 242029Z 17003KT 23/07 A2989 RMK A01 T02250074  RH  038%=      5-min Rain = 0
KPD2 242030Z 16002KT 23/08 A2989 RMK A01 T02250080  RH  039%=      5-min Rain = 0
KPD2 242031Z 11002KT 23/07 A2989 RMK A01 T02260074  RH  038%=      5-min Rain = 0
KPD2 242032Z 16002KT 23/08 A2989 RMK A01 T02280081  RH  039%=      5-min Rain = 0
KPD2 242033Z 23002KT 23/08 A2989 RMK A01 T02300079  RH  038%=      5-min Rain = 0
KPD2 242034Z 24003KT 23/08 A2989 RMK A01 T02320077  RH  037%=      5-min Rain = 0
KPD2 242035Z 25004KT 23/08 A2989 RMK A01 T02330081  RH  038%=      5-min Rain = 0
KPD2 242036Z 26004KT 23/08 A2989 RMK A01 T02340081  RH  038%=      5-min Rain = 0
KPD2 242037Z 26001KT 23/08 A2989 RMK A01 T02330078  RH  037%=      5-min Rain = 0
KPD2 242038Z 26005KT 23/08 A2989 RMK A01 T02330080  RH  037%=      5-min Rain = 0
KPD2 242039Z 28006KT 23/08 A2989 RMK A01 T02330083  RH  038%=      5-min Rain = 0
KPD2 242040Z 27006KT 24/08 A2989 RMK A01 T02350083  RH  038%=      5-min Rain = 0
KPD2 242041Z 26004KT 23/08 A2989 RMK A01 T02340076  RH  036%=      5-min Rain = 0
KPD2 242042Z 30004KT 23/07 A2989 RMK A01 T02300072  RH  036%=      5-min Rain = 0
KPD2 242043Z 32002KT 23/07 A2989 RMK A01 T02280071  RH  036%=      5-min Rain = 0
KPD2 242044Z 30002KT 23/08 A2988 RMK A01 T02270077  RH  038%=      5-min Rain = 0
KPD2 242045Z 27003KT 23/08 A2988 RMK A01 T02290077  RH  038%=      5-min Rain = 0
KPD2 242046Z 25005KT 23/08 A2988 RMK A01 T02290078  RH  038%=      5-min Rain = 0
KPD2 242047Z 29005KT 23/09 A2988 RMK A01 T02300085  RH  039%=      5-min Rain = 0
KPD2 242048Z 28004KT 23/08 A2988 RMK A01 T02330080  RH  038%=      5-min Rain = 0
KPD2 242049Z 25005KT 23/08 A2988 RMK A01 T02310082  RH  038%=      5-min Rain = 0
KPD2 242050Z 23004KT 23/08 A2988 RMK A01 T02310079  RH  038%=      5-min Rain = 0
KPD2 242051Z 24002KT 23/07 A2988 RMK A01 T02270073  RH  037%=      5-min Rain = 0
KPD2 242052Z 29006KT 22/08 A2988 RMK A01 T02240078  RH  039%=      5-min Rain = 0
KPD2 242053Z 28005KT 23/08 A2988 RMK A01 T02260081  RH  039%=      5-min Rain = 0
KPD2 242054Z 34004KT 23/08 A2988 RMK A01 T02300081  RH  039%=      5-min Rain = 0
KPD2 242055Z 31005KT 23/08 A2988 RMK A01 T02310078  RH  038%=      5-min Rain = 0
KPD2 242056Z 30005KT 23/08 A2988 RMK A01 T02310080  RH  038%=      5-min Rain = 0
KPD2 242057Z 30007KT 23/08 A2988 RMK A01 T02330080  RH  037%=      5-min Rain = 0
KPD2 242058Z 29005KT 23/08 A2988 RMK A01 T02330080  RH  037%=      5-min Rain = 0
KPD2 242059Z 30006KT 23/08 A2988 RMK A01 T02330081  RH  038%=      5-min Rain = 0
KPD2 242100Z 28004KT 23/08 A2988 RMK A01 T02310077  RH  037%=      5-min Rain = 0
KPD2 242101Z 26004KT 23/08 A2988 RMK A01 T02300078  RH  037%=      5-min Rain = 0
KPD2 242102Z 27004KT 23/08 A2988 RMK A01 T02300075  RH  037%=      5-min Rain = 0
KPD2 242103Z 27003KT 23/08 A2988 RMK A01 T02300079  RH  038%=      5-min Rain = 0
KPD2 242104Z 28002KT 23/08 A2988 RMK A01 T02340080  RH  037%=      5-min Rain = 0
KPD2 242105Z 33002KT 24/08 A2988 RMK A01 T02370077  RH  036%=      5-min Rain = 0
KPD2 242106Z 34004KT 24/07 A2988 RMK A01 T02370072  RH  035%=      5-min Rain = 0
KPD2 242107Z 31002KT 24/07 A2987 RMK A01 T02350070  RH  035%=      5-min Rain = 0
KPD2 242108Z 30001KT 23/07 A2987 RMK A01 T02340072  RH  035%=      5-min Rain = 0
KPD2 242109Z 25003KT 23/08 A2987 RMK A01 T02340078  RH  037%=      5-min Rain = 0
KPD2 242110Z 25004KT 24/07 A2987 RMK A01 T02350074  RH  036%=      5-min Rain = 0
KPD2 242111Z 25003KT 23/07 A2987 RMK A01 T02330074  RH  036%=      5-min Rain = 0
KPD2 242112Z 23002KT 23/08 A2987 RMK A01 T02300077  RH  038%=      5-min Rain = 0
KPD2 242113Z 25004KT 23/09 A2987 RMK A01 T02330087  RH  039%=      5-min Rain = 0
KPD2 242114Z 26006KT 24/08 A2987 RMK A01 T02380082  RH  037%=      5-min Rain = 0
KPD2 242115Z 27005KT 24/08 A2987 RMK A01 T02390082  RH  037%=      5-min Rain = 0
KPD2 242116Z 24005KT 24/08 A2987 RMK A01 T02380081  RH  036%=      5-min Rain = 0
KPD2 242117Z 22005KT 24/08 A2987 RMK A01 T02370080  RH  037%=      5-min Rain = 0
KPD2 242118Z 20005KT 24/08 A2987 RMK A01 T02360083  RH  037%=      5-min Rain = 0
KPD2 242119Z 23003KT 24/08 A2987 RMK A01 T02350079  RH  037%=      5-min Rain = 0
KPD2 242120Z 29009KT 24/08 A2987 RMK A01 T02350081  RH  037%=      5-min Rain = 0
KPD2 242121Z 29004KT 23/08 A2987 RMK A01 T02340080  RH  037%=      5-min Rain = 0
KPD2 242122Z 31005KT 24/08 A2987 RMK A01 T02350082  RH  038%=      5-min Rain = 0
KPD2 242123Z 33006KT 24/08 A2987 RMK A01 T02360080  RH  037%=      5-min Rain = 0
KPD2 242124Z 00002KT 24/08 A2987 RMK A01 T02360078  RH  036%=      5-min Rain = 0
KPD2 242125Z 03001KT 24/08 A2987 RMK A01 T02360078  RH  036%=      5-min Rain = 0
KPD2 242126Z 21003KT 24/08 A2987 RMK A01 T02350076  RH  036%=      5-min Rain = 0
KPD2 242127Z 10001KT 23/08 A2987 RMK A01 T02320075  RH  036%=      5-min Rain = 0
KPD2 242128Z 17004KT 23/08 A2987 RMK A01 T02300079  RH  038%=      5-min Rain = 0
KPD2 242129Z 17004KT 23/08 A2987 RMK A01 T02300078  RH  038%=      5-min Rain = 0
KPD2 242130Z 17002KT 23/08 A2987 RMK A01 T02300079  RH  038%=      5-min Rain = 0
KPD2 242131Z 25004KT 23/08 A2987 RMK A01 T02300078  RH  038%=      5-min Rain = 0
KPD2 242132Z 27005KT 23/08 A2986 RMK A01 T02310079  RH  038%=      5-min Rain = 0
KPD2 242133Z 30005KT 23/08 A2986 RMK A01 T02320077  RH  037%=      5-min Rain = 0
KPD2 242134Z 30008KT 23/08 A2986 RMK A01 T02330079  RH  037%=      5-min Rain = 0
KPD2 242135Z 29007KT 23/08 A2986 RMK A01 T02300076  RH  037%=      5-min Rain = 0
KPD2 242136Z 28005KT 23/08 A2986 RMK A01 T02270075  RH  038%=      5-min Rain = 0
KPD2 242137Z 24005KT 22/08 A2987 RMK A01 T02240076  RH  038%=      5-min Rain = 0
KPD2 242138Z 25006KT 22/08 A2987 RMK A01 T02230077  RH  039%=      5-min Rain = 0
KPD2 242139Z 26005KT 22/08 A2986 RMK A01 T02230078  RH  039%=      5-min Rain = 0
KPD2 242140Z 28004KT 22/08 A2986 RMK A01 T02240076  RH  039%=      5-min Rain = 0
KPD2 242141Z 30005KT 23/08 A2986 RMK A01 T02250078  RH  039%=      5-min Rain = 0
KPD2 242142Z 33004KT 23/08 A2986 RMK A01 T02270080  RH  039%=      5-min Rain = 0
KPD2 242143Z 33004KT 23/08 A2986 RMK A01 T02290078  RH  038%=      5-min Rain = 0
KPD2 242144Z 34006KT 23/08 A2986 RMK A01 T02310079  RH  038%=      5-min Rain = 0
KPD2 242145Z 34005KT 23/08 A2986 RMK A01 T02330077  RH  037%=      5-min Rain = 0
KPD2 242146Z 34004KT 23/08 A2986 RMK A01 T02330076  RH  036%=      5-min Rain = 0
KPD2 242147Z 32001KT 23/08 A2986 RMK A01 T02330079  RH  037%=      5-min Rain = 0
KPD2 242148Z 32004KT 24/08 A2986 RMK A01 T02350078  RH  037%=      5-min Rain = 0
KPD2 242149Z 33003KT 24/08 A2986 RMK A01 T02360076  RH  036%=      5-min Rain = 0
KPD2 242150Z 33007KT 24/08 A2986 RMK A01 T02350075  RH  036%=      5-min Rain = 0
KPD2 242151Z 33007KT 23/07 A2986 RMK A01 T02330074  RH  036%=      5-min Rain = 0
KPD2 242152Z 34004KT 23/08 A2986 RMK A01 T02320078  RH  037%=      5-min Rain = 0
KPD2 242153Z 33002KT 23/08 A2986 RMK A01 T02340082  RH  038%=      5-min Rain = 0
KPD2 242154Z 03003KT 24/08 A2986 RMK A01 T02380078  RH  036%=      5-min Rain = 0
KPD2 242155Z 03002KT 24/07 A2986 RMK A01 T02380073  RH  035%=      5-min Rain = 0
KPD2 242156Z 33003KT 24/08 A2986 RMK A01 T02400079  RH  036%=      5-min Rain = 0
KPD2 242157Z 36004KT 24/08 A2986 RMK A01 T02410076  RH  035%=      5-min Rain = 0
KPD2 242158Z 34004KT 24/09 A2986 RMK A01 T02430085  RH  036%=      5-min Rain = 0
KPD2 242159Z 32005KT 24/08 A2986 RMK A01 T02440077  RH  034%=      5-min Rain = 0
KPD2 242200Z 33005KT 24/07 A2986 RMK A01 T02390072  RH  034%=      5-min Rain = 0
KPD2 242201Z 35006KT 24/07 A2986 RMK A01 T02350074  RH  036%=      5-min Rain = 0
KPD2 242202Z 35005KT 23/08 A2986 RMK A01 T02340081  RH  037%=      5-min Rain = 0
KPD2 242203Z 35005KT 24/08 A2986 RMK A01 T02370079  RH  036%=      5-min Rain = 0
KPD2 242204Z 01004KT 24/08 A2986 RMK A01 T02390076  RH  035%=      5-min Rain = 0
KPD2 242205Z 03003KT 24/07 A2986 RMK A01 T02370073  RH  035%=      5-min Rain = 0
KPD2 242206Z 01002KT 24/07 A2986 RMK A01 T02350073  RH  035%=      5-min Rain = 0
KPD2 242207Z 35002KT 24/07 A2986 RMK A01 T02350073  RH  035%=      5-min Rain = 0
KPD2 242208Z 02003KT 24/08 A2986 RMK A01 T02360079  RH  037%=      5-min Rain = 0
KPD2 242209Z 04002KT 24/07 A2986 RMK A01 T02370071  RH  034%=      5-min Rain = 0
KPD2 242210Z 04001KT 24/07 A2986 RMK A01 T02350065  RH  033%=      5-min Rain = 0
KPD2 242211Z 05000KT 23/08 A2986 RMK A01 T02340075  RH  036%=      5-min Rain = 0
KPD2 242212Z 01002KT 23/07 A2986 RMK A01 T02330074  RH  036%=      5-min Rain = 0
KPD2 242213Z 02005KT 23/08 A2986 RMK A01 T02320075  RH  036%=      5-min Rain = 0
KPD2 242214Z 04004KT 23/07 A2986 RMK A01 T02280072  RH  037%=      5-min Rain = 0
KPD2 242215Z 05002KT 22/07 A2986 RMK A01 T02240072  RH  038%=      5-min Rain = 0
KPD2 242216Z 03002KT 22/08 A2986 RMK A01 T02230075  RH  039%=      5-min Rain = 0
KPD2 242217Z 03001KT 22/07 A2986 RMK A01 T02220073  RH  038%=      5-min Rain = 0
KPD2 242218Z 04001KT 22/07 A2986 RMK A01 T02230073  RH  038%=      5-min Rain = 0
KPD2 242219Z 05001KT 23/08 A2986 RMK A01 T02270075  RH  038%=      5-min Rain = 0
KPD2 242220Z 22000KT 23/08 A2986 RMK A01 T02290077  RH  038%=      5-min Rain = 0
KPD2 242221Z 10001KT 23/08 A2986 RMK A01 T02320075  RH  037%=      5-min Rain = 0
KPD2 242222Z 29001KT 24/08 A2986 RMK A01 T02350078  RH  037%=      5-min Rain = 0
KPD2 242223Z 33002KT 24/08 A2986 RMK A01 T02380077  RH  036%=      5-min Rain = 0
KPD2 242224Z 32003KT 24/08 A2986 RMK A01 T02380079  RH  036%=      5-min Rain = 0
KPD2 242225Z 32005KT 24/08 A2986 RMK A01 T02390082  RH  036%=      5-min Rain = 0
KPD2 242226Z 32005KT 24/08 A2986 RMK A01 T02410082  RH  036%=      5-min Rain = 0
KPD2 242227Z 30004KT 24/07 A2986 RMK A01 T02410074  RH  034%=      5-min Rain = 0
KPD2 242228Z 27002KT 24/07 A2985 RMK A01 T02380073  RH  035%=      5-min Rain = 0
KPD2 242229Z 29003KT 24/07 A2985 RMK A01 T02370073  RH  035%=      5-min Rain = 0
KPD2 242230Z 27003KT 24/08 A2985 RMK A01 T02370075  RH  035%=      5-min Rain = 0
KPD2 242231Z 35003KT 24/08 A2985 RMK A01 T02370078  RH  036%=      5-min Rain = 0
KPD2 242232Z 02004KT 24/08 A2985 RMK A01 T02400080  RH  036%=      5-min Rain = 0
KPD2 242233Z 34003KT 24/08 A2985 RMK A01 T02420080  RH  036%=      5-min Rain = 0
KPD2 242234Z 00004KT 25/08 A2985 RMK A01 T02450080  RH  035%=      5-min Rain = 0
KPD2 242235Z 33007KT 25/08 A2985 RMK A01 T02460077  RH  034%=      5-min Rain = 0
KPD2 242236Z 32007KT 25/07 A2985 RMK A01 T02450072  RH  033%=      5-min Rain = 0
KPD2 242237Z 32008KT 24/07 A2985 RMK A01 T02400070  RH  034%=      5-min Rain = 0
KPD2 242238Z 33007KT 24/07 A2985 RMK A01 T02350067  RH  034%=      5-min Rain = 0
KPD2 242239Z 33006KT 23/07 A2985 RMK A01 T02320066  RH  034%=      5-min Rain = 0
KPD2 242240Z 34006KT 23/07 A2985 RMK A01 T02300067  RH  035%=      5-min Rain = 0
KPD2 242241Z 35005KT 23/07 A2985 RMK A01 T02270068  RH  036%=      5-min Rain = 0
KPD2 242242Z 35004KT 23/07 A2985 RMK A01 T02260072  RH  037%=      5-min Rain = 0
KPD2 242243Z 00004KT 23/07 A2985 RMK A01 T02260073  RH  037%=      5-min Rain = 0
KPD2 242244Z 35003KT 23/07 A2985 RMK A01 T02270074  RH  037%=      5-min Rain = 0
KPD2 242245Z 01001KT 23/07 A2985 RMK A01 T02280073  RH  037%=      5-min Rain = 0
KPD2 242246Z 36003KT 23/08 A2985 RMK A01 T02290080  RH  038%=      5-min Rain = 0
KPD2 242247Z 01003KT 23/08 A2985 RMK A01 T02330081  RH  038%=      5-min Rain = 0
KPD2 242248Z 01004KT 24/08 A2985 RMK A01 T02350076  RH  036%=      5-min Rain = 0
KPD2 242249Z 02003KT 24/08 A2985 RMK A01 T02350075  RH  036%=      5-min Rain = 0
KPD2 242250Z 03004KT 24/08 A2985 RMK A01 T02360078  RH  036%=      5-min Rain = 0
KPD2 242251Z 03004KT 24/08 A2985 RMK A01 T02370075  RH  035%=      5-min Rain = 0
KPD2 242252Z 33005KT 24/07 A2985 RMK A01 T02370074  RH  035%=      5-min Rain = 0
KPD2 242253Z 36004KT 24/07 A2985 RMK A01 T02350070  RH  035%=      5-min Rain = 0
KPD2 242254Z 07003KT 23/07 A2985 RMK A01 T02320073  RH  036%=      5-min Rain = 0
KPD2 242255Z 09002KT 23/07 A2985 RMK A01 T02320073  RH  036%=      5-min Rain = 0
KPD2 242256Z 12003KT 23/08 A2985 RMK A01 T02330075  RH  036%=      5-min Rain = 0
KPD2 242257Z 11005KT 23/07 A2985 RMK A01 T02340074  RH  036%=      5-min Rain = 0
KPD2 242258Z 11005KT 23/07 A2985 RMK A01 T02340073  RH  035%=      5-min Rain = 0
KPD2 242259Z 14005KT 23/08 A2985 RMK A01 T02340076  RH  036%=      5-min Rain = 0
KPD2 242300Z 15003KT 23/07 A2985 RMK A01 T02330072  RH  035%=      5-min Rain = 0
KPD2 242301Z 11002KT 23/07 A2985 RMK A01 T02330074  RH  036%=      5-min Rain = 0
KPD2 242302Z 08001KT 23/07 A2985 RMK A01 T02330071  RH  035%=      5-min Rain = 0
KPD2 242303Z 32002KT 23/07 A2985 RMK A01 T02340074  RH  036%=      5-min Rain = 0
KPD2 242304Z 29004KT 24/08 A2985 RMK A01 T02360076  RH  036%=      5-min Rain = 0
KPD2 242305Z 28006KT 24/07 A2985 RMK A01 T02380073  RH  035%=      5-min Rain = 0
KPD2 242306Z 26005KT 24/08 A2985 RMK A01 T02360075  RH  036%=      5-min Rain = 0
KPD2 242307Z 26004KT 24/07 A2985 RMK A01 T02370074  RH  035%=      5-min Rain = 0
KPD2 242308Z 31001KT 24/07 A2985 RMK A01 T02350070  RH  035%=      5-min Rain = 0
KPD2 242309Z 30004KT 24/07 A2985 RMK A01 T02350073  RH  035%=      5-min Rain = 0
KPD2 242310Z 29005KT 24/08 A2985 RMK A01 T02350075  RH  036%=      5-min Rain = 0
KPD2 242311Z 30004KT 24/08 A2985 RMK A01 T02370079  RH  036%=      5-min Rain = 0
KPD2 242312Z 31005KT 24/08 A2985 RMK A01 T02400080  RH  036%=      5-min Rain = 0
KPD2 242313Z 30005KT 24/07 A2985 RMK A01 T02380073  RH  035%=      5-min Rain = 0
KPD2 242314Z 30005KT 24/08 A2985 RMK A01 T02360076  RH  036%=      5-min Rain = 0
KPD2 242315Z 29007KT 24/08 A2985 RMK A01 T02360076  RH  036%=      5-min Rain = 0
KPD2 242316Z 29006KT 23/08 A2985 RMK A01 T02340077  RH  036%=      5-min Rain = 0
KPD2 242317Z 28005KT 23/08 A2985 RMK A01 T02330077  RH  037%=      5-min Rain = 0
KPD2 242318Z 28005KT 23/08 A2985 RMK A01 T02330078  RH  037%=      5-min Rain = 0
KPD2 242319Z 29005KT 23/08 A2985 RMK A01 T02330075  RH  036%=      5-min Rain = 0
KPD2 242320Z 29004KT 23/08 A2985 RMK A01 T02330075  RH  036%=      5-min Rain = 0
KPD2 242321Z 29004KT 23/07 A2985 RMK A01 T02320074  RH  036%=      5-min Rain = 0
KPD2 242322Z 31005KT 23/08 A2985 RMK A01 T02320076  RH  037%=      5-min Rain = 0
KPD2 242323Z 32006KT 24/08 A2985 RMK A01 T02350076  RH  036%=      5-min Rain = 0
KPD2 242324Z 32005KT 24/07 A2985 RMK A01 T02380070  RH  034%=      5-min Rain = 0
KPD2 242325Z 34005KT 24/07 A2985 RMK A01 T02390067  RH  033%=      5-min Rain = 0
KPD2 242326Z 35006KT 24/07 A2985 RMK A01 T02410074  RH  034%=      5-min Rain = 0
KPD2 242327Z 36003KT 24/07 A2985 RMK A01 T02410065  RH  032%=      5-min Rain = 0
KPD2 242328Z 30002KT 24/06 A2985 RMK A01 T02400064  RH  032%=      5-min Rain = 0
KPD2 242329Z 29005KT 24/06 A2985 RMK A01 T02390059  RH  031%=      5-min Rain = 0
KPD2 242330Z 30005KT 24/06 A2985 RMK A01 T02360061  RH  032%=      5-min Rain = 0
KPD2 242331Z 29003KT 24/06 A2985 RMK A01 T02350062  RH  033%=      5-min Rain = 0
KPD2 242332Z 00000KT 24/06 A2985 RMK A01 T02350064  RH  033%=      5-min Rain = 0
KPD2 242333Z 25000KT 24/06 A2985 RMK A01 T02350064  RH  033%=      5-min Rain = 0
KPD2 242334Z 27002KT 24/06 A2985 RMK A01 T02350064  RH  033%=      5-min Rain = 0
KPD2 242335Z 24002KT 24/06 A2985 RMK A01 T02360063  RH  033%=      5-min Rain = 0
KPD2 242336Z 21003KT 24/06 A2985 RMK A01 T02360060  RH  032%=      5-min Rain = 0
KPD2 242337Z 22002KT 24/06 A2985 RMK A01 T02350063  RH  033%=      5-min Rain = 0
KPD2 242338Z 21003KT 23/06 A2985 RMK A01 T02340063  RH  033%=      5-min Rain = 0
KPD2 242339Z 20003KT 23/06 A2985 RMK A01 T02330064  RH  034%=      5-min Rain = 0
KPD2 242340Z 17002KT 23/06 A2985 RMK A01 T02320062  RH  033%=      5-min Rain = 0
KPD2 242341Z 14001KT 23/06 A2985 RMK A01 T02310062  RH  033%=      5-min Rain = 0
KPD2 242342Z 25002KT 23/07 A2985 RMK A01 T02320065  RH  034%=      5-min Rain = 0
KPD2 242343Z 26003KT 23/07 A2985 RMK A01 T02330067  RH  034%=      5-min Rain = 0
KPD2 242344Z 26006KT 24/07 A2985 RMK A01 T02350068  RH  034%=      5-min Rain = 0
KPD2 242345Z 28005KT 24/07 A2985 RMK A01 T02350070  RH  034%=      5-min Rain = 0
KPD2 242346Z 30004KT 24/07 A2985 RMK A01 T02350070  RH  035%=      5-min Rain = 0
KPD2 242347Z 33003KT 24/07 A2985 RMK A01 T02370071  RH  035%=      5-min Rain = 0
KPD2 242348Z 33005KT 24/07 A2985 RMK A01 T02390073  RH  034%=      5-min Rain = 0
KPD2 242349Z 33004KT 24/07 A2985 RMK A01 T02380071  RH  034%=      5-min Rain = 0
KPD2 242350Z 32006KT 24/07 A2985 RMK A01 T02380073  RH  035%=      5-min Rain = 0
KPD2 242351Z 31006KT 24/07 A2985 RMK A01 T02380068  RH  033%=      5-min Rain = 0
KPD2 242352Z 31005KT 24/07 A2985 RMK A01 T02370070  RH  034%=      5-min Rain = 0
KPD2 242353Z 33005KT 24/07 A2985 RMK A01 T02360069  RH  034%=      5-min Rain = 0
KPD2 242354Z 32005KT 24/07 A2985 RMK A01 T02360069  RH  034%=      5-min Rain = 0
KPD2 242355Z 33007KT 24/07 A2985 RMK A01 T02360067  RH  034%=      5-min Rain = 0
KPD2 242356Z 33004KT 24/07 A2985 RMK A01 T02350069  RH  034%=      5-min Rain = 0
KPD2 242357Z 26003KT 24/07 A2985 RMK A01 T02370072  RH  035%=      5-min Rain = 0
KPD2 242358Z 26002KT 24/07 A2985 RMK A01 T02380070  RH  034%=      5-min Rain = 0
KPD2 242359Z 28004KT 24/07 A2985 RMK A01 T02370067  RH  033%=      5-min Rain = 0
KPD2 250000Z 30005KT 24/07 A2985 RMK A01 T02370068  RH  034%=      5-min Rain = 0
KPD2 250001Z 31005KT 24/07 A2985 RMK A01 T02360069  RH  034%=      5-min Rain = 0
KPD2 250002Z 30007KT 23/06 A2985 RMK A01 T02340064  RH  033%=      5-min Rain = 0
KPD2 250003Z 31005KT 23/06 A2985 RMK A01 T02320062  RH  034%=      5-min Rain = 0
KPD2 250004Z 30006KT 23/07 A2985 RMK A01 T02310065  RH  034%=      5-min Rain = 0
KPD2 250005Z 29005KT 23/07 A2985 RMK A01 T02300066  RH  035%=      5-min Rain = 0
KPD2 250006Z 29005KT 23/07 A2985 RMK A01 T02310065  RH  034%=      5-min Rain = 0
KPD2 250007Z 30005KT 23/07 A2985 RMK A01 T02300066  RH  035%=      5-min Rain = 0
KPD2 250008Z 30006KT 23/07 A2985 RMK A01 T02310068  RH  035%=      5-min Rain = 0
KPD2 250009Z 30006KT 23/07 A2985 RMK A01 T02300069  RH  035%=      5-min Rain = 0
KPD2 250010Z 30005KT 23/07 A2985 RMK A01 T02300068  RH  035%=      5-min Rain = 0
KPD2 250011Z 31007KT 23/07 A2985 RMK A01 T02300069  RH  036%=      5-min Rain = 0
KPD2 250012Z 31006KT 23/07 A2985 RMK A01 T02300069  RH  035%=      5-min Rain = 0
KPD2 250013Z 31007KT 23/07 A2985 RMK A01 T02300070  RH  036%=      5-min Rain = 0
KPD2 250014Z 29006KT 23/07 A2985 RMK A01 T02300069  RH  036%=      5-min Rain = 0
KPD2 250015Z 29006KT 23/07 A2985 RMK A01 T02300070  RH  036%=      5-min Rain = 0
KPD2 250016Z 29006KT 23/07 A2985 RMK A01 T02290070  RH  036%=      5-min Rain = 0
KPD2 250017Z 29005KT 23/07 A2985 RMK A01 T02290068  RH  035%=      5-min Rain = 0
KPD2 250018Z 30006KT 23/07 A2985 RMK A01 T02290068  RH  036%=      5-min Rain = 0
KPD2 250019Z 27004KT 23/07 A2985 RMK A01 T02280069  RH  036%=      5-min Rain = 0
KPD2 250020Z 28004KT 23/07 A2984 RMK A01 T02280070  RH  036%=      5-min Rain = 0
KPD2 250021Z 28004KT 23/07 A2984 RMK A01 T02280070  RH  036%=      5-min Rain = 0
KPD2 250022Z 29006KT 23/07 A2984 RMK A01 T02280070  RH  036%=      5-min Rain = 0
KPD2 250023Z 27004KT 23/07 A2984 RMK A01 T02290070  RH  036%=      5-min Rain = 0
KPD2 250024Z 31004KT 23/07 A2984 RMK A01 T02290072  RH  036%=      5-min Rain = 0
KPD2 250025Z 30003KT 23/07 A2984 RMK A01 T02290073  RH  037%=      5-min Rain = 0
KPD2 250026Z 34003KT 23/07 A2984 RMK A01 T02290073  RH  037%=      5-min Rain = 0
KPD2 250027Z 35005KT 23/08 A2984 RMK A01 T02310079  RH  038%=      5-min Rain = 0
KPD2 250028Z 32003KT 23/08 A2984 RMK A01 T02320077  RH  037%=      5-min Rain = 0
KPD2 250029Z 30004KT 23/08 A2984 RMK A01 T02320075  RH  037%=      5-min Rain = 0
KPD2 250030Z 30006KT 23/07 A2984 RMK A01 T02320074  RH  036%=      5-min Rain = 0
KPD2 250031Z 30005KT 23/07 A2984 RMK A01 T02300070  RH  036%=      5-min Rain = 0
KPD2 250032Z 29005KT 23/07 A2984 RMK A01 T02280070  RH  036%=      5-min Rain = 0
KPD2 250033Z 30005KT 23/07 A2984 RMK A01 T02270070  RH  036%=      5-min Rain = 0
KPD2 250034Z 30004KT 23/07 A2984 RMK A01 T02260068  RH  036%=      5-min Rain = 0
KPD2 250035Z 28005KT 23/07 A2984 RMK A01 T02250070  RH  037%=      5-min Rain = 0
KPD2 250036Z 30004KT 22/07 A2984 RMK A01 T02240071  RH  037%=      5-min Rain = 0
KPD2 250037Z 29005KT 22/07 A2984 RMK A01 T02230073  RH  038%=      5-min Rain = 0
KPD2 250038Z 29003KT 22/07 A2984 RMK A01 T02220073  RH  038%=      5-min Rain = 0
KPD2 250039Z 30003KT 22/07 A2984 RMK A01 T02210074  RH  039%=      5-min Rain = 0
KPD2 250040Z 29004KT 22/07 A2984 RMK A01 T02200074  RH  039%=      5-min Rain = 0
KPD2 250041Z 29002KT 22/07 A2984 RMK A01 T02200073  RH  039%=      5-min Rain = 0
KPD2 250042Z 29003KT 22/07 A2984 RMK A01 T02190072  RH  039%=      5-min Rain = 0
KPD2 250043Z 28003KT 22/07 A2984 RMK A01 T02200072  RH  039%=      5-min Rain = 0
KPD2 250044Z 28004KT 22/07 A2984 RMK A01 T02200073  RH  039%=      5-min Rain = 0
KPD2 250045Z 28005KT 22/07 A2984 RMK A01 T02200074  RH  039%=      5-min Rain = 0
KPD2 250046Z 29004KT 22/07 A2984 RMK A01 T02210074  RH  039%=      5-min Rain = 0
KPD2 250047Z 30004KT 22/07 A2984 RMK A01 T02210074  RH  039%=      5-min Rain = 0
KPD2 250048Z 31003KT 22/07 A2984 RMK A01 T02210074  RH  039%=      5-min Rain = 0
KPD2 250049Z 31004KT 22/08 A2984 RMK A01 T02210076  RH  039%=      5-min Rain = 0
KPD2 250050Z 30004KT 22/08 A2984 RMK A01 T02210076  RH  039%=      5-min Rain = 0
KPD2 250051Z 30004KT 22/08 A2984 RMK A01 T02210077  RH  039%=      5-min Rain = 0
KPD2 250052Z 30004KT 22/08 A2984 RMK A01 T02200075  RH  039%=      5-min Rain = 0
KPD2 250053Z 30004KT 22/07 A2984 RMK A01 T02200074  RH  039%=      5-min Rain = 0
KPD2 250054Z 31003KT 22/08 A2984 RMK A01 T02190076  RH  040%=      5-min Rain = 0
KPD2 250055Z 30003KT 22/08 A2984 RMK A01 T02190078  RH  040%=      5-min Rain = 0
KPD2 250056Z 32003KT 22/08 A2984 RMK A01 T02190077  RH  040%=      5-min Rain = 0
KPD2 250057Z 30002KT 22/08 A2984 RMK A01 T02180078  RH  040%=      5-min Rain = 0
KPD2 250058Z 30002KT 22/08 A2984 RMK A01 T02180077  RH  040%=      5-min Rain = 0
KPD2 250059Z 29002KT 22/08 A2984 RMK A01 T02180077  RH  040%=      5-min Rain = 0
KPD2 250100Z 30002KT 22/08 A2984 RMK A01 T02170076  RH  040%=      5-min Rain = 0
KPD2 250101Z 29002KT 22/08 A2984 RMK A01 T02170077  RH  041%=      5-min Rain = 0
KPD2 250102Z 30002KT 22/08 A2984 RMK A01 T02170076  RH  040%=      5-min Rain = 0
KPD2 250103Z 29001KT 22/08 A2984 RMK A01 T02170077  RH  041%=      5-min Rain = 0
KPD2 250104Z 27000KT 22/08 A2984 RMK A01 T02170079  RH  041%=      5-min Rain = 0
KPD2 250105Z 26001KT 22/08 A2984 RMK A01 T02170079  RH  041%=      5-min Rain = 0
KPD2 250106Z 26001KT 22/08 A2984 RMK A01 T02160080  RH  041%=      5-min Rain = 0
KPD2 250107Z 26001KT 22/08 A2984 RMK A01 T02160081  RH  042%=      5-min Rain = 0
KPD2 250108Z 25000KT 22/08 A2984 RMK A01 T02160080  RH  042%=      5-min Rain = 0
KPD2 250109Z 31000KT 22/08 A2984 RMK A01 T02150079  RH  041%=      5-min Rain = 0
KPD2 250110Z 31001KT 22/08 A2984 RMK A01 T02150076  RH  041%=      5-min Rain = 0
KPD2 250111Z 31001KT 21/08 A2984 RMK A01 T02140077  RH  041%=      5-min Rain = 0
KPD2 250112Z 30001KT 21/08 A2984 RMK A01 T02130078  RH  042%=      5-min Rain = 0
KPD2 250113Z 31002KT 21/08 A2984 RMK A01 T02130080  RH  042%=      5-min Rain = 0
KPD2 250114Z 30001KT 21/08 A2984 RMK A01 T02120080  RH  043%=      5-min Rain = 0
KPD2 250115Z 30000KT 21/08 A2984 RMK A01 T02120083  RH  044%=      5-min Rain = 0
KPD2 250116Z 00000KT 21/08 A2984 RMK A01 T02110084  RH  044%=      5-min Rain = 0
KPD2 250117Z 00000KT 21/08 A2984 RMK A01 T02100081  RH  043%=      5-min Rain = 0
KPD2 250118Z 00000KT 21/08 A2984 RMK A01 T02090080  RH  043%=      5-min Rain = 0
KPD2 250119Z 00000KT 21/08 A2984 RMK A01 T02090080  RH  043%=      5-min Rain = 0
KPD2 250120Z 00000KT 21/08 A2984 RMK A01 T02080084  RH  045%=      5-min Rain = 0
KPD2 250121Z 33000KT 21/08 A2984 RMK A01 T02070082  RH  045%=      5-min Rain = 0
KPD2 250122Z 00000KT 21/08 A2984 RMK A01 T02060082  RH  045%=      5-min Rain = 0
KPD2 250123Z 01001KT 21/08 A2984 RMK A01 T02050080  RH  045%=      5-min Rain = 0
KPD2 250124Z 02002KT 20/08 A2985 RMK A01 T02040081  RH  045%=      5-min Rain = 0
KPD2 250125Z 01001KT 20/08 A2985 RMK A01 T02030080  RH  045%=      5-min Rain = 0
KPD2 250126Z 01001KT 20/08 A2985 RMK A01 T02020080  RH  045%=      5-min Rain = 0
KPD2 250127Z 01001KT 20/08 A2985 RMK A01 T02020081  RH  046%=      5-min Rain = 0
KPD2 250128Z 01000KT 20/09 A2985 RMK A01 T02010089  RH  048%=      5-min Rain = 0
KPD2 250129Z 00000KT 20/09 A2985 RMK A01 T02010093  RH  050%=      5-min Rain = 0
KPD2 250130Z 15000KT 20/09 A2985 RMK A01 T02000088  RH  048%=      5-min Rain = 0
KPD2 250131Z 14002KT 20/09 A2985 RMK A01 T01990086  RH  048%=      5-min Rain = 0
KPD2 250132Z 13002KT 20/09 A2985 RMK A01 T01990090  RH  050%=      5-min Rain = 0
KPD2 250133Z 13002KT 20/09 A2985 RMK A01 T01980087  RH  049%=      5-min Rain = 0
KPD2 250134Z 13002KT 20/09 A2985 RMK A01 T01970090  RH  050%=      5-min Rain = 0
KPD2 250135Z 13002KT 20/09 A2985 RMK A01 T01960093  RH  051%=      5-min Rain = 0
KPD2 250136Z 07000KT 20/09 A2985 RMK A01 T01950087  RH  050%=      5-min Rain = 0
KPD2 250137Z 03002KT 19/08 A2985 RMK A01 T01940082  RH  048%=      5-min Rain = 0
KPD2 250138Z 03003KT 19/08 A2985 RMK A01 T01940079  RH  047%=      5-min Rain = 0
KPD2 250139Z 02003KT 20/08 A2985 RMK A01 T01960080  RH  047%=      5-min Rain = 0
KPD2 250140Z 03003KT 20/08 A2985 RMK A01 T01970081  RH  047%=      5-min Rain = 0
KPD2 250141Z 01002KT 20/08 A2985 RMK A01 T01970082  RH  047%=      5-min Rain = 0
KPD2 250142Z 03003KT 20/08 A2985 RMK A01 T01960082  RH  047%=      5-min Rain = 0
KPD2 250143Z 02002KT 20/08 A2985 RMK A01 T01960084  RH  048%=      5-min Rain = 0
KPD2 250144Z 03001KT 20/08 A2985 RMK A01 T01950084  RH  049%=      5-min Rain = 0
KPD2 250145Z 27000KT 19/09 A2985 RMK A01 T01940086  RH  049%=      5-min Rain = 0
KPD2 250146Z 25002KT 19/09 A2985 RMK A01 T01930085  RH  050%=      5-min Rain = 0
KPD2 250147Z 24002KT 19/09 A2985 RMK A01 T01910086  RH  050%=      5-min Rain = 0
KPD2 250148Z 23002KT 19/09 A2985 RMK A01 T01900086  RH  051%=      5-min Rain = 0
KPD2 250149Z 23003KT 19/09 A2985 RMK A01 T01880085  RH  051%=      5-min Rain = 0
KPD2 250150Z 23002KT 19/09 A2986 RMK A01 T01870087  RH  052%=      5-min Rain = 0
KPD2 250151Z 24000KT 19/09 A2986 RMK A01 T01860086  RH  052%=      5-min Rain = 0
KPD2 250152Z 00000KT 19/09 A2986 RMK A01 T01850085  RH  052%=      5-min Rain = 0
KPD2 250153Z 11000KT 18/09 A2986 RMK A01 T01840086  RH  053%=      5-min Rain = 0
KPD2 250154Z 06002KT 18/09 A2986 RMK A01 T01820085  RH  053%=      5-min Rain = 0
KPD2 250155Z 05001KT 18/08 A2986 RMK A01 T01820084  RH  053%=      5-min Rain = 0
KPD2 250156Z 05001KT 18/08 A2986 RMK A01 T01810084  RH  053%=      5-min Rain = 0
KPD2 250157Z 06001KT 18/08 A2986 RMK A01 T01810082  RH  052%=      5-min Rain = 0
KPD2 250158Z 08001KT 18/08 A2986 RMK A01 T01810081  RH  052%=      5-min Rain = 0
KPD2 250159Z 09001KT 18/08 A2986 RMK A01 T01810082  RH  052%=      5-min Rain = 0
KPD2 250200Z 09000KT 18/08 A2986 RMK A01 T01820082  RH  052%=      5-min Rain = 0
KPD2 250201Z 12000KT 18/08 A2986 RMK A01 T01820083  RH  052%=      5-min Rain = 0
KPD2 250202Z 00000KT 18/09 A2986 RMK A01 T01820085  RH  053%=      5-min Rain = 0
KPD2 250203Z 00000KT 18/08 A2986 RMK A01 T01810083  RH  053%=      5-min Rain = 0
KPD2 250204Z 00000KT 18/09 A2986 RMK A01 T01810085  RH  053%=      5-min Rain = 0
KPD2 250205Z 15000KT 18/09 A2986 RMK A01 T01810088  RH  054%=      5-min Rain = 0
KPD2 250206Z 00000KT 18/09 A2986 RMK A01 T01800087  RH  054%=      5-min Rain = 0
KPD2 250207Z 22000KT 18/09 A2986 RMK A01 T01790085  RH  054%=      5-min Rain = 0
KPD2 250208Z 23001KT 18/09 A2986 RMK A01 T01790087  RH  055%=      5-min Rain = 0
KPD2 250209Z 23001KT 18/09 A2986 RMK A01 T01780088  RH  055%=      5-min Rain = 0
KPD2 250210Z 18001KT 18/09 A2986 RMK A01 T01770089  RH  056%=      5-min Rain = 0
KPD2 250211Z 21000KT 18/09 A2986 RMK A01 T01760089  RH  057%=      5-min Rain = 0
KPD2 250212Z 12001KT 17/09 A2986 RMK A01 T01740089  RH  057%=      5-min Rain = 0
KPD2 250213Z 21003KT 17/09 A2986 RMK A01 T01740088  RH  057%=      5-min Rain = 0
KPD2 250214Z 21002KT 17/09 A2986 RMK A01 T01730090  RH  058%=      5-min Rain = 0
KPD2 250215Z 20002KT 17/09 A2986 RMK A01 T01720091  RH  059%=      5-min Rain = 0
KPD2 250216Z 20002KT 17/09 A2986 RMK A01 T01720092  RH  059%=      5-min Rain = 0
KPD2 250217Z 20002KT 17/09 A2986 RMK A01 T01710091  RH  059%=      5-min Rain = 0
KPD2 250218Z 18002KT 17/09 A2986 RMK A01 T01710090  RH  059%=      5-min Rain = 0
KPD2 250219Z 19002KT 17/09 A2986 RMK A01 T01700092  RH  060%=      5-min Rain = 0
KPD2 250220Z 20003KT 17/09 A2986 RMK A01 T01700092  RH  060%=      5-min Rain = 0
KPD2 250221Z 22003KT 17/09 A2986 RMK A01 T01690091  RH  060%=      5-min Rain = 0
KPD2 250222Z 21002KT 17/09 A2986 RMK A01 T01680090  RH  060%=      5-min Rain = 0
KPD2 250223Z 21001KT 17/09 A2986 RMK A01 T01670092  RH  061%=      5-min Rain = 0
KPD2 250224Z 22001KT 17/09 A2986 RMK A01 T01660092  RH  062%=      5-min Rain = 0
KPD2 250225Z 22000KT 17/09 A2986 RMK A01 T01650091  RH  062%=      5-min Rain = 0
KPD2 250226Z 22000KT 16/09 A2986 RMK A01 T01640090  RH  061%=      5-min Rain = 0
KPD2 250227Z 21001KT 16/09 A2986 RMK A01 T01640090  RH  062%=      5-min Rain = 0
KPD2 250228Z 20000KT 16/09 A2986 RMK A01 T01640091  RH  062%=      5-min Rain = 0
KPD2 250229Z 00000KT 16/09 A2987 RMK A01 T01640090  RH  062%=      5-min Rain = 0
KPD2 250230Z 00000KT 16/09 A2987 RMK A01 T01640090  RH  062%=      5-min Rain = 0
KPD2 250231Z 00000KT 16/09 A2987 RMK A01 T01630090  RH  062%=      5-min Rain = 0
KPD2 250232Z 00000KT 16/09 A2987 RMK A01 T01630091  RH  062%=      5-min Rain = 0
KPD2 250233Z 17000KT 16/10 A2987 RMK A01 T01630097  RH  065%=      5-min Rain = 0
KPD2 250234Z 16001KT 16/10 A2987 RMK A01 T01620097  RH  065%=      5-min Rain = 0
KPD2 250235Z 13002KT 16/10 A2987 RMK A01 T01610096  RH  065%=      5-min Rain = 0
KPD2 250236Z 12002KT 16/09 A2987 RMK A01 T01610094  RH  064%=      5-min Rain = 0
KPD2 250237Z 12002KT 16/09 A2987 RMK A01 T01610094  RH  065%=      5-min Rain = 0
KPD2 250238Z 12002KT 16/10 A2987 RMK A01 T01610095  RH  065%=      5-min Rain = 0
KPD2 250239Z 12002KT 16/10 A2987 RMK A01 T01610096  RH  065%=      5-min Rain = 0
KPD2 250240Z 12003KT 16/10 A2987 RMK A01 T01600098  RH  066%=      5-min Rain = 0
KPD2 250241Z 11003KT 16/10 A2987 RMK A01 T01600098  RH  066%=      5-min Rain = 0
KPD2 250242Z 12003KT 16/10 A2987 RMK A01 T01590098  RH  067%=      5-min Rain = 0
KPD2 250243Z 12003KT 16/10 A2987 RMK A01 T01590095  RH  066%=      5-min Rain = 0
KPD2 250244Z 13004KT 16/09 A2987 RMK A01 T01600092  RH  064%=      5-min Rain = 0
KPD2 250245Z 14003KT 16/09 A2987 RMK A01 T01620092  RH  063%=      5-min Rain = 0
KPD2 250246Z 16002KT 16/09 A2987 RMK A01 T01620093  RH  064%=      5-min Rain = 0
KPD2 250247Z 16003KT 16/09 A2987 RMK A01 T01630093  RH  063%=      5-min Rain = 0
KPD2 250248Z 15002KT 16/10 A2987 RMK A01 T01630095  RH  064%=      5-min Rain = 0
KPD2 250249Z 16001KT 16/10 A2987 RMK A01 T01630095  RH  064%=      5-min Rain = 0
KPD2 250250Z 16001KT 16/09 A2987 RMK A01 T01620094  RH  064%=      5-min Rain = 0
KPD2 250251Z 19002KT 16/09 A2987 RMK A01 T01620093  RH  064%=      5-min Rain = 0
KPD2 250252Z 19001KT 16/09 A2987 RMK A01 T01610092  RH  064%=      5-min Rain = 0
KPD2 250253Z 21001KT 16/09 A2987 RMK A01 T01600092  RH  064%=      5-min Rain = 0
KPD2 250254Z 20001KT 16/09 A2987 RMK A01 T01590092  RH  064%=      5-min Rain = 0
KPD2 250255Z 20001KT 16/09 A2987 RMK A01 T01590092  RH  064%=      5-min Rain = 0
KPD2 250256Z 19001KT 16/09 A2987 RMK A01 T01580091  RH  064%=      5-min Rain = 0
KPD2 250257Z 19001KT 16/09 A2987 RMK A01 T01570091  RH  064%=      5-min Rain = 0
KPD2 250258Z 19000KT 16/09 A2987 RMK A01 T01560091  RH  065%=      5-min Rain = 0
KPD2 250259Z 00000KT 16/09 A2987 RMK A01 T01550090  RH  065%=      5-min Rain = 0
KPD2 250300Z 00000KT 16/09 A2987 RMK A01 T01550089  RH  065%=      5-min Rain = 0
KPD2 250301Z 00000KT 16/09 A2987 RMK A01 T01550088  RH  065%=      5-min Rain = 0
KPD2 250302Z 00000KT 16/09 A2987 RMK A01 T01550088  RH  064%=      5-min Rain = 0
KPD2 250303Z 00000KT 16/09 A2987 RMK A01 T01550088  RH  064%=      5-min Rain = 0
KPD2 250304Z 33000KT 16/09 A2987 RMK A01 T01550088  RH  064%=      5-min Rain = 0
KPD2 250305Z 35002KT 15/09 A2987 RMK A01 T01540089  RH  065%=      5-min Rain = 0
KPD2 250306Z 35001KT 15/09 A2987 RMK A01 T01540090  RH  066%=      5-min Rain = 0
KPD2 250307Z 35001KT 15/09 A2987 RMK A01 T01530090  RH  066%=      5-min Rain = 0
KPD2 250308Z 35001KT 15/09 A2987 RMK A01 T01530090  RH  066%=      5-min Rain = 0
KPD2 250309Z 32001KT 15/09 A2987 RMK A01 T01520091  RH  067%=      5-min Rain = 0
KPD2 250310Z 33002KT 15/09 A2987 RMK A01 T01510093  RH  068%=      5-min Rain = 0
KPD2 250311Z 33001KT 15/09 A2987 RMK A01 T01500092  RH  068%=      5-min Rain = 0
KPD2 250312Z 30002KT 15/09 A2987 RMK A01 T01490090  RH  068%=      5-min Rain = 0
KPD2 250313Z 28001KT 15/09 A2987 RMK A01 T01480091  RH  069%=      5-min Rain = 0
KPD2 250314Z 28002KT 15/09 A2987 RMK A01 T01470091  RH  069%=      5-min Rain = 0
KPD2 250315Z 28002KT 15/09 A2987 RMK A01 T01460090  RH  069%=      5-min Rain = 0
KPD2 250316Z 29002KT 15/09 A2988 RMK A01 T01460089  RH  069%=      5-min Rain = 0
KPD2 250317Z 29003KT 15/09 A2988 RMK A01 T01450089  RH  069%=      5-min Rain = 0
KPD2 250318Z 29003KT 15/09 A2988 RMK A01 T01450090  RH  069%=      5-min Rain = 0
KPD2 250319Z 30003KT 14/09 A2988 RMK A01 T01440089  RH  070%=      5-min Rain = 0
KPD2 250320Z 31003KT 14/09 A2988 RMK A01 T01430089  RH  070%=      5-min Rain = 0
KPD2 250321Z 31002KT 14/09 A2988 RMK A01 T01420089  RH  071%=      5-min Rain = 0
KPD2 250322Z 32002KT 14/09 A2988 RMK A01 T01410089  RH  071%=      5-min Rain = 0
KPD2 250323Z 32002KT 14/09 A2988 RMK A01 T01400089  RH  071%=      5-min Rain = 0
KPD2 250324Z 31002KT 14/09 A2988 RMK A01 T01400088  RH  071%=      5-min Rain = 0
KPD2 250325Z 31002KT 14/09 A2988 RMK A01 T01390088  RH  071%=      5-min Rain = 0
KPD2 250326Z 32001KT 14/09 A2988 RMK A01 T01390088  RH  071%=      5-min Rain = 0
KPD2 250327Z 31002KT 14/09 A2988 RMK A01 T01380088  RH  071%=      5-min Rain = 0
KPD2 250328Z 30002KT 14/09 A2988 RMK A01 T01380088  RH  072%=      5-min Rain = 0
KPD2 250329Z 28002KT 14/09 A2988 RMK A01 T01380089  RH  072%=      5-min Rain = 0
KPD2 250330Z 29002KT 14/09 A2988 RMK A01 T01370090  RH  073%=      5-min Rain = 0
KPD2 250331Z 29003KT 14/09 A2988 RMK A01 T01370089  RH  073%=      5-min Rain = 0
KPD2 250332Z 30003KT 14/09 A2988 RMK A01 T01360089  RH  073%=      5-min Rain = 0
KPD2 250333Z 30003KT 14/09 A2988 RMK A01 T01350089  RH  074%=      5-min Rain = 0
KPD2 250334Z 29004KT 14/09 A2988 RMK A01 T01350089  RH  074%=      5-min Rain = 0
KPD2 250335Z 30004KT 13/09 A2988 RMK A01 T01340090  RH  074%=      5-min Rain = 0
KPD2 250336Z 30003KT 13/09 A2988 RMK A01 T01340090  RH  074%=      5-min Rain = 0
KPD2 250337Z 32002KT 13/09 A2988 RMK A01 T01340090  RH  075%=      5-min Rain = 0
KPD2 250338Z 33002KT 13/09 A2988 RMK A01 T01330090  RH  075%=      5-min Rain = 0
KPD2 250339Z 32003KT 13/09 A2988 RMK A01 T01330090  RH  075%=      5-min Rain = 0
KPD2 250340Z 31003KT 13/09 A2988 RMK A01 T01320090  RH  075%=      5-min Rain = 0
KPD2 250341Z 32003KT 13/09 A2988 RMK A01 T01330090  RH  075%=      5-min Rain = 0
KPD2 250342Z 33003KT 13/09 A2988 RMK A01 T01330090  RH  075%=      5-min Rain = 0
KPD2 250343Z 34003KT 13/09 A2988 RMK A01 T01330090  RH  075%=      5-min Rain = 0
KPD2 250344Z 33004KT 13/09 A2988 RMK A01 T01320090  RH  076%=      5-min Rain = 0
KPD2 250345Z 32004KT 13/09 A2988 RMK A01 T01310090  RH  076%=      5-min Rain = 0
KPD2 250346Z 33003KT 13/09 A2988 RMK A01 T01320090  RH  076%=      5-min Rain = 0
KPD2 250347Z 33003KT 13/09 A2988 RMK A01 T01330090  RH  075%=      5-min Rain = 0
KPD2 250348Z 32003KT 13/09 A2988 RMK A01 T01330090  RH  075%=      5-min Rain = 0
KPD2 250349Z 33003KT 13/09 A2988 RMK A01 T01340090  RH  074%=      5-min Rain = 0
KPD2 250350Z 32003KT 14/09 A2988 RMK A01 T01350089  RH  074%=      5-min Rain = 0
KPD2 250351Z 32003KT 14/09 A2988 RMK A01 T01370090  RH  073%=      5-min Rain = 0
KPD2 250352Z 31003KT 14/09 A2988 RMK A01 T01380089  RH  072%=      5-min Rain = 0
KPD2 250353Z 31002KT 14/09 A2988 RMK A01 T01380089  RH  072%=      5-min Rain = 0
KPD2 250354Z 31002KT 14/09 A2988 RMK A01 T01390089  RH  072%=      5-min Rain = 0
KPD2 250355Z 31003KT 14/09 A2988 RMK A01 T01390089  RH  072%=      5-min Rain = 0
KPD2 250356Z 31003KT 14/09 A2988 RMK A01 T01380089  RH  072%=      5-min Rain = 0
KPD2 250357Z 31004KT 14/09 A2988 RMK A01 T01380089  RH  072%=      5-min Rain = 0
KPD2 250358Z 32004KT 14/09 A2988 RMK A01 T01370088  RH  072%=      5-min Rain = 0
KPD2 250359Z 31004KT 14/09 A2988 RMK A01 T01370088  RH  073%=      5-min Rain = 0
KPD2 250400Z 31003KT 14/09 A2988 RMK A01 T01360088  RH  073%=      5-min Rain = 0
KPD2 250401Z 30003KT 14/09 A2988 RMK A01 T01360088  RH  073%=      5-min Rain = 0
KPD2 250402Z 32003KT 14/09 A2988 RMK A01 T01360088  RH  073%=      5-min Rain = 0
KPD2 250403Z 32002KT 14/09 A2988 RMK A01 T01350088  RH  073%=      5-min Rain = 0
KPD2 250404Z 32002KT 14/09 A2988 RMK A01 T01350088  RH  073%=      5-min Rain = 0
KPD2 250405Z 31002KT 14/09 A2988 RMK A01 T01350088  RH  073%=      5-min Rain = 0
KPD2 250406Z 30002KT 13/09 A2988 RMK A01 T01340088  RH  074%=      5-min Rain = 0
KPD2 250407Z 29002KT 13/09 A2988 RMK A01 T01330088  RH  074%=      5-min Rain = 0
KPD2 250408Z 29002KT 13/09 A2988 RMK A01 T01330088  RH  074%=      5-min Rain = 0
KPD2 250409Z 28003KT 13/09 A2988 RMK A01 T01320088  RH  075%=      5-min Rain = 0
KPD2 250410Z 28002KT 13/09 A2988 RMK A01 T01310088  RH  075%=      5-min Rain = 0
KPD2 250411Z 28002KT 13/09 A2988 RMK A01 T01300088  RH  075%=      5-min Rain = 0
KPD2 250412Z 28001KT 13/09 A2988 RMK A01 T01290088  RH  076%=      5-min Rain = 0
KPD2 250413Z 27002KT 13/09 A2988 RMK A01 T01280087  RH  076%=      5-min Rain = 0
KPD2 250414Z 29003KT 13/09 A2988 RMK A01 T01270087  RH  076%=      5-min Rain = 0
KPD2 250415Z 29002KT 13/09 A2988 RMK A01 T01260087  RH  077%=      5-min Rain = 0
KPD2 250416Z 29002KT 13/09 A2988 RMK A01 T01250086  RH  077%=      5-min Rain = 0
KPD2 250417Z 28002KT 12/09 A2988 RMK A01 T01240086  RH  077%=      5-min Rain = 0
KPD2 250418Z 28003KT 12/09 A2988 RMK A01 T01230086  RH  078%=      5-min Rain = 0
KPD2 250419Z 29002KT 12/09 A2988 RMK A01 T01220086  RH  078%=      5-min Rain = 0
KPD2 250420Z 30003KT 12/09 A2988 RMK A01 T01210086  RH  079%=      5-min Rain = 0
KPD2 250421Z 31002KT 12/09 A2988 RMK A01 T01210087  RH  079%=      5-min Rain = 0
KPD2 250422Z 31002KT 12/09 A2988 RMK A01 T01210086  RH  079%=      5-min Rain = 0
KPD2 250423Z 31002KT 12/09 A2988 RMK A01 T01200086  RH  080%=      5-min Rain = 0
KPD2 250424Z 32002KT 12/09 A2988 RMK A01 T01200087  RH  080%=      5-min Rain = 0
KPD2 250425Z 33002KT 12/09 A2988 RMK A01 T01200087  RH  080%=      5-min Rain = 0
KPD2 250426Z 31002KT 12/09 A2988 RMK A01 T01200087  RH  080%=      5-min Rain = 0
KPD2 250427Z 31002KT 12/09 A2988 RMK A01 T01200087  RH  080%=      5-min Rain = 0
KPD2 250428Z 31002KT 12/09 A2988 RMK A01 T01200087  RH  081%=      5-min Rain = 0
KPD2 250429Z 32002KT 12/09 A2988 RMK A01 T01200087  RH  080%=      5-min Rain = 0
KPD2 250430Z 30002KT 12/09 A2988 RMK A01 T01200088  RH  081%=      5-min Rain = 0
KPD2 250431Z 30003KT 12/09 A2988 RMK A01 T01210088  RH  080%=      5-min Rain = 0
KPD2 250432Z 30003KT 12/09 A2988 RMK A01 T01210087  RH  080%=      5-min Rain = 0
KPD2 250433Z 30003KT 12/09 A2988 RMK A01 T01210087  RH  080%=      5-min Rain = 0
KPD2 250434Z 29003KT 12/09 A2988 RMK A01 T01210087  RH  079%=      5-min Rain = 0
KPD2 250435Z 29003KT 12/09 A2988 RMK A01 T01220087  RH  079%=      5-min Rain = 0
KPD2 250436Z 30003KT 12/09 A2988 RMK A01 T01230087  RH  079%=      5-min Rain = 0
KPD2 250437Z 30003KT 12/09 A2988 RMK A01 T01230087  RH  078%=      5-min Rain = 0
KPD2 250438Z 31002KT 12/09 A2988 RMK A01 T01230087  RH  078%=      5-min Rain = 0
KPD2 250439Z 33002KT 12/09 A2987 RMK A01 T01230087  RH  078%=      5-min Rain = 0
KPD2 250440Z 34002KT 12/09 A2987 RMK A01 T01230086  RH  078%=      5-min Rain = 0
KPD2 250441Z 33002KT 12/09 A2987 RMK A01 T01220086  RH  079%=      5-min Rain = 0
KPD2 250442Z 31002KT 12/09 A2987 RMK A01 T01220087  RH  079%=      5-min Rain = 0
KPD2 250443Z 30003KT 12/09 A2987 RMK A01 T01220087  RH  079%=      5-min Rain = 0
KPD2 250444Z 30004KT 12/09 A2987 RMK A01 T01210087  RH  079%=      5-min Rain = 0
KPD2 250445Z 30003KT 12/09 A2987 RMK A01 T01210087  RH  079%=      5-min Rain = 0
KPD2 250446Z 30003KT 12/09 A2987 RMK A01 T01220087  RH  079%=      5-min Rain = 0
KPD2 250447Z 31003KT 12/09 A2987 RMK A01 T01210086  RH  079%=      5-min Rain = 0
KPD2 250448Z 31002KT 12/09 A2987 RMK A01 T01200085  RH  079%=      5-min Rain = 0
KPD2 250449Z 31002KT 12/09 A2987 RMK A01 T01190085  RH  080%=      5-min Rain = 0
KPD2 250450Z 31002KT 12/09 A2987 RMK A01 T01180085  RH  080%=      5-min Rain = 0
KPD2 250451Z 31002KT 12/09 A2987 RMK A01 T01180086  RH  081%=      5-min Rain = 0
KPD2 250452Z 30002KT 12/09 A2987 RMK A01 T01170086  RH  081%=      5-min Rain = 0
KPD2 250453Z 30003KT 12/09 A2987 RMK A01 T01170086  RH  081%=      5-min Rain = 0
KPD2 250454Z 30003KT 12/09 A2988 RMK A01 T01170086  RH  081%=      5-min Rain = 0
KPD2 250455Z 29002KT 12/09 A2988 RMK A01 T01170085  RH  081%=      5-min Rain = 0
KPD2 250456Z 25001KT 12/09 A2988 RMK A01 T01180086  RH  081%=      5-min Rain = 0
KPD2 250457Z 26002KT 12/09 A2988 RMK A01 T01180086  RH  080%=      5-min Rain = 0
KPD2 250458Z 28002KT 12/09 A2988 RMK A01 T01190086  RH  080%=      5-min Rain = 0
KPD2 250459Z 28002KT 12/09 A2988 RMK A01 T01190086  RH  080%=      5-min Rain = 0

Page generated in 0.0388 seconds.